Time,TemperatureF,DewpointF,PressureIn,WindDirection,WindDirectionDegrees,WindSpeedMPH,WindSpeedGustMPH,Humidity,HourlyPrecipIn,Conditions,Clouds,dailyrainin,SoftwareType,DateUTC
2013-03-16 00:01:00,70.3,41.4,29.90,SSE,150,9.0,10.0,35,0.00,,CLR,0.00,VWS V14.01,2013-03-16 05:01:00,
2013-03-16 00:02:00,70.3,40.6,29.90,SE,136,8.0,11.0,34,0.00,,CLR,0.00,VWS V14.01,2013-03-16 05:02:00,
2013-03-16 00:08:00,70.5,40.8,29.89,SE,135,7.0,11.0,34,0.00,,CLR,0.00,VWS V14.01,2013-03-16 05:08:00,
2013-03-16 00:13:00,70.5,40.8,29.89,SSE,165,7.0,13.0,34,0.00,,CLR,0.00,VWS V14.01,2013-03-16 05:13:00,
2013-03-16 00:18:00,70.4,40.0,29.89,SSE,150,6.0,12.0,33,0.00,,CLR,0.00,VWS V14.01,2013-03-16 05:18:00,
2013-03-16 00:23:00,70.4,40.0,29.89,SSE,156,8.0,8.0,33,0.00,,CLR,0.00,VWS V14.01,2013-03-16 05:23:00,
2013-03-16 00:28:00,70.3,39.9,29.89,SSE,165,9.0,12.0,33,0.00,,CLR,0.00,VWS V14.01,2013-03-16 05:28:00,
2013-03-16 00:29:00,70.3,39.9,29.89,SE,146,18.0,19.0,33,0.00,,CLR,0.00,VWS V14.01,2013-03-16 05:29:00,
2013-03-16 00:33:00,70.3,39.9,29.89,SSE,148,5.0,6.0,33,0.00,,CLR,0.00,VWS V14.01,2013-03-16 05:33:00,
2013-03-16 00:34:00,70.3,39.9,29.89,SE,134,4.0,9.0,33,0.00,,CLR,0.00,VWS V14.01,2013-03-16 05:34:00,
2013-03-16 00:38:00,70.2,39.8,29.89,SE,138,8.0,11.0,33,0.00,,CLR,0.00,VWS V14.01,2013-03-16 05:38:00,
2013-03-16 00:39:00,70.2,39.8,29.89,SE,145,7.0,8.0,33,0.00,,CLR,0.00,VWS V14.01,2013-03-16 05:39:00,
2013-03-16 00:43:00,69.9,39.5,29.89,ESE,120,7.0,7.0,33,0.00,,CLR,0.00,VWS V14.01,2013-03-16 05:43:00,
2013-03-16 00:44:00,69.9,39.5,29.88,SE,145,7.0,11.0,33,0.00,,CLR,0.00,VWS V14.01,2013-03-16 05:44:00,
2013-03-16 00:48:00,69.8,39.4,29.89,South,172,13.0,13.0,33,0.00,,CLR,0.00,VWS V14.01,2013-03-16 05:48:00,
2013-03-16 00:49:00,69.8,39.4,29.88,SE,146,5.0,10.0,33,0.00,,CLR,0.00,VWS V14.01,2013-03-16 05:49:00,
2013-03-16 00:53:00,69.6,40.0,29.89,SE,144,5.0,12.0,34,0.00,,CLR,0.00,VWS V14.01,2013-03-16 05:53:00,
2013-03-16 00:54:00,69.6,40.0,29.89,South,179,7.0,7.0,34,0.00,,CLR,0.00,VWS V14.01,2013-03-16 05:54:00,
2013-03-16 00:58:00,69.3,39.8,29.89,SSE,162,6.0,7.0,34,0.00,,CLR,0.00,VWS V14.01,2013-03-16 05:58:00,
2013-03-16 00:59:00,69.3,39.8,29.89,SSE,154,7.0,7.0,34,0.00,,CLR,0.00,VWS V14.01,2013-03-16 05:59:00,
2013-03-16 01:03:00,69.0,40.2,29.88,ESE,116,8.0,9.0,35,0.00,,CLR,0.00,VWS V14.01,2013-03-16 06:03:00,
2013-03-16 01:04:00,68.9,40.2,29.88,ESE,105,10.0,10.0,35,0.00,,CLR,0.00,VWS V14.01,2013-03-16 06:04:00,
2013-03-16 01:08:00,68.6,39.9,29.88,SE,146,4.0,6.0,35,0.00,,CLR,0.00,VWS V14.01,2013-03-16 06:08:00,
2013-03-16 01:09:00,68.6,39.9,29.88,SE,135,3.0,8.0,35,0.00,,CLR,0.00,VWS V14.01,2013-03-16 06:09:00,
2013-03-16 01:13:00,68.4,40.4,29.89,SE,144,4.0,7.0,36,0.00,,CLR,0.00,VWS V14.01,2013-03-16 06:13:00,
2013-03-16 01:14:00,68.3,40.3,29.88,South,174,4.0,6.0,36,0.00,,CLR,0.00,VWS V14.01,2013-03-16 06:14:00,
2013-03-16 01:18:00,68.2,41.0,29.89,SSE,152,4.0,11.0,37,0.00,,CLR,0.00,VWS V14.01,2013-03-16 06:18:00,
2013-03-16 01:19:00,68.2,41.0,29.88,SSE,156,3.0,11.0,37,0.00,,CLR,0.00,VWS V14.01,2013-03-16 06:19:00,
2013-03-16 01:23:00,68.0,42.1,29.88,SSE,162,6.0,11.0,39,0.00,,CLR,0.00,VWS V14.01,2013-03-16 06:23:00,
2013-03-16 01:24:00,68.0,42.1,29.88,SSE,155,4.0,10.0,39,0.00,,CLR,0.00,VWS V14.01,2013-03-16 06:24:00,
2013-03-16 01:25:00,68.0,42.1,29.88,SE,128,3.0,4.0,39,0.00,,CLR,0.00,VWS V14.01,2013-03-16 06:25:00,
2013-03-16 01:29:00,67.8,42.6,29.88,SSE,163,5.0,5.0,40,0.00,,CLR,0.00,VWS V14.01,2013-03-16 06:29:00,
2013-03-16 01:30:00,67.8,42.6,29.88,SSE,150,6.0,9.0,40,0.00,,CLR,0.00,VWS V14.01,2013-03-16 06:30:00,
2013-03-16 01:34:00,67.7,43.8,29.88,SSE,166,4.0,7.0,42,0.00,,CLR,0.00,VWS V14.01,2013-03-16 06:34:00,
2013-03-16 01:35:00,67.6,43.7,29.88,SE,126,5.0,5.0,42,0.00,,CLR,0.00,VWS V14.01,2013-03-16 06:35:00,
2013-03-16 01:39:00,67.4,44.2,29.88,SSE,167,7.0,14.0,43,0.00,,CLR,0.00,VWS V14.01,2013-03-16 06:39:00,
2013-03-16 01:40:00,67.4,44.2,29.88,South,191,8.0,12.0,43,0.00,,CLR,0.00,VWS V14.01,2013-03-16 06:40:00,
2013-03-16 01:44:00,67.2,44.0,29.88,South,187,5.0,8.0,43,0.00,,CLR,0.00,VWS V14.01,2013-03-16 06:44:00,
2013-03-16 01:45:00,67.2,44.6,29.88,SE,146,3.0,6.0,44,0.00,,CLR,0.00,VWS V14.01,2013-03-16 06:45:00,
2013-03-16 01:49:00,67.0,44.4,29.88,SE,146,4.0,6.0,44,0.00,,CLR,0.00,VWS V14.01,2013-03-16 06:49:00,
2013-03-16 01:50:00,66.9,44.9,29.88,East,99,5.0,8.0,45,0.00,,CLR,0.00,VWS V14.01,2013-03-16 06:50:00,
2013-03-16 01:54:00,66.8,44.8,29.88,SSE,148,7.0,7.0,45,0.00,,CLR,0.00,VWS V14.01,2013-03-16 06:54:00,
2013-03-16 01:55:00,66.8,44.8,29.88,South,181,7.0,7.0,45,0.00,,CLR,0.00,VWS V14.01,2013-03-16 06:55:00,
2013-03-16 02:00:00,66.6,45.2,29.88,ESE,114,8.0,8.0,46,0.00,,CLR,0.00,VWS V14.01,2013-03-16 07:00:00,
2013-03-16 02:05:00,66.5,45.1,29.88,SSW,201,2.0,4.0,46,0.00,,CLR,0.00,VWS V14.01,2013-03-16 07:05:00,
2013-03-16 02:10:00,66.3,45.5,29.88,SE,136,4.0,4.0,47,0.00,,CLR,0.00,VWS V14.01,2013-03-16 07:10:00,
2013-03-16 02:15:00,66.3,45.5,29.88,SSE,155,8.0,8.0,47,0.00,,CLR,0.00,VWS V14.01,2013-03-16 07:15:00,
2013-03-16 02:20:00,66.0,45.8,29.87,ESE,112,6.0,6.0,48,0.00,,CLR,0.00,VWS V14.01,2013-03-16 07:20:00,
2013-03-16 02:25:00,65.9,45.7,29.88,SSE,155,3.0,3.0,48,0.00,,CLR,0.00,VWS V14.01,2013-03-16 07:25:00,
2013-03-16 02:30:00,65.7,46.0,29.88,SE,134,6.0,10.0,49,0.00,,CLR,0.00,VWS V14.01,2013-03-16 07:30:00,
2013-03-16 02:35:00,65.6,46.0,29.87,South,174,3.0,5.0,49,0.00,,CLR,0.00,VWS V14.01,2013-03-16 07:35:00,
2013-03-16 02:36:00,65.5,46.4,29.88,South,174,3.0,7.0,50,0.00,,CLR,0.00,VWS V14.01,2013-03-16 07:36:00,
2013-03-16 02:40:00,65.3,46.2,29.88,SSE,152,3.0,6.0,50,0.00,,CLR,0.00,VWS V14.01,2013-03-16 07:40:00,
2013-03-16 02:41:00,65.3,46.2,29.88,South,169,4.0,4.0,50,0.00,,CLR,0.00,VWS V14.01,2013-03-16 07:41:00,
2013-03-16 02:45:00,65.2,46.6,29.87,SSE,159,6.0,11.0,51,0.00,,CLR,0.00,VWS V14.01,2013-03-16 07:45:00,
2013-03-16 02:46:00,65.2,46.6,29.87,ESE,112,7.0,7.0,51,0.00,,CLR,0.00,VWS V14.01,2013-03-16 07:46:00,
2013-03-16 02:50:00,65.0,46.5,29.87,SE,134,2.0,5.0,51,0.00,,CLR,0.00,VWS V14.01,2013-03-16 07:50:00,
2013-03-16 02:51:00,65.0,46.5,29.88,SE,125,4.0,4.0,51,0.00,,CLR,0.00,VWS V14.01,2013-03-16 07:51:00,
2013-03-16 02:55:00,64.9,46.9,29.88,SSW,197,6.0,6.0,52,0.00,,CLR,0.00,VWS V14.01,2013-03-16 07:55:00,
2013-03-16 02:56:00,64.9,46.9,29.88,SE,145,6.0,6.0,52,0.00,,CLR,0.00,VWS V14.01,2013-03-16 07:56:00,
2013-03-16 02:57:00,64.8,46.8,29.88,SSE,167,5.0,6.0,52,0.00,,CLR,0.00,VWS V14.01,2013-03-16 07:57:00,
2013-03-16 03:00:00,64.8,46.8,29.88,SE,143,6.0,8.0,52,0.00,,CLR,0.00,VWS V14.01,2013-03-16 08:00:00,
2013-03-16 03:01:00,64.8,46.8,29.88,SSE,148,5.0,8.0,52,0.00,,CLR,0.00,VWS V14.01,2013-03-16 08:01:00,
2013-03-16 03:02:00,64.8,46.8,29.88,SSW,195,5.0,7.0,52,0.00,,CLR,0.00,VWS V14.01,2013-03-16 08:02:00,
2013-03-16 03:06:00,64.6,46.6,29.88,South,190,6.0,9.0,52,0.00,,CLR,0.00,VWS V14.01,2013-03-16 08:06:00,
2013-03-16 03:07:00,64.6,47.1,29.88,SSE,159,3.0,5.0,53,0.00,,CLR,0.00,VWS V14.01,2013-03-16 08:07:00,
2013-03-16 03:11:00,64.5,47.0,29.88,ESE,118,7.0,7.0,53,0.00,,CLR,0.00,VWS V14.01,2013-03-16 08:11:00,
2013-03-16 03:12:00,64.4,46.9,29.88,SSE,149,5.0,11.0,53,0.00,,CLR,0.00,VWS V14.01,2013-03-16 08:12:00,
2013-03-16 03:16:00,64.3,47.3,29.88,SE,139,4.0,7.0,54,0.00,,CLR,0.00,VWS V14.01,2013-03-16 08:16:00,
2013-03-16 03:17:00,64.2,47.2,29.87,SSW,193,3.0,6.0,54,0.00,,CLR,0.00,VWS V14.01,2013-03-16 08:17:00,
2013-03-16 03:21:00,64.0,47.0,29.87,SE,141,1.0,6.0,54,0.00,,CLR,0.00,VWS V14.01,2013-03-16 08:21:00,
2013-03-16 03:22:00,64.0,47.5,29.87,SSE,162,10.0,14.0,55,0.00,,CLR,0.00,VWS V14.01,2013-03-16 08:22:00,
2013-03-16 03:26:00,63.9,47.4,29.87,SE,141,7.0,7.0,55,0.00,,CLR,0.00,VWS V14.01,2013-03-16 08:26:00,
2013-03-16 03:27:00,63.9,47.4,29.87,SSE,150,6.0,9.0,55,0.00,,CLR,0.00,VWS V14.01,2013-03-16 08:27:00,
2013-03-16 03:31:00,63.7,47.2,29.87,SSE,156,5.0,5.0,55,0.00,,CLR,0.00,VWS V14.01,2013-03-16 08:31:00,
2013-03-16 03:32:00,63.7,47.2,29.87,SSE,159,4.0,7.0,55,0.00,,CLR,0.00,VWS V14.01,2013-03-16 08:32:00,
2013-03-16 03:33:00,63.7,47.2,29.87,SSE,166,2.0,2.0,55,0.00,,CLR,0.00,VWS V14.01,2013-03-16 08:33:00,
2013-03-16 03:36:00,63.5,47.5,29.87,SSE,155,3.0,3.0,56,0.00,,CLR,0.00,VWS V14.01,2013-03-16 08:36:00,
2013-03-16 03:37:00,63.4,47.5,29.87,SSE,150,5.0,7.0,56,0.00,,CLR,0.00,VWS V14.01,2013-03-16 08:37:00,
2013-03-16 03:38:00,63.4,47.5,29.87,SE,146,3.0,5.0,56,0.00,,CLR,0.00,VWS V14.01,2013-03-16 08:38:00,
2013-03-16 03:42:00,63.3,47.3,29.87,SSE,152,7.0,7.0,56,0.00,,CLR,0.00,VWS V14.01,2013-03-16 08:42:00,
2013-03-16 03:43:00,63.3,47.3,29.86,SSE,148,4.0,4.0,56,0.00,,CLR,0.00,VWS V14.01,2013-03-16 08:43:00,
2013-03-16 03:47:00,63.2,47.7,29.87,SE,135,4.0,5.0,57,0.00,,CLR,0.00,VWS V14.01,2013-03-16 08:47:00,
2013-03-16 03:48:00,63.1,47.6,29.87,SSE,158,4.0,5.0,57,0.00,,CLR,0.00,VWS V14.01,2013-03-16 08:48:00,
2013-03-16 03:52:00,63.0,47.5,29.86,SE,144,4.0,6.0,57,0.00,,CLR,0.00,VWS V14.01,2013-03-16 08:52:00,
2013-03-16 03:53:00,63.0,48.0,29.86,SSE,155,4.0,5.0,58,0.00,,CLR,0.00,VWS V14.01,2013-03-16 08:53:00,
2013-03-16 03:57:00,63.0,48.0,29.86,SSE,155,6.0,8.0,58,0.00,,CLR,0.00,VWS V14.01,2013-03-16 08:57:00,
2013-03-16 03:58:00,63.0,48.0,29.86,South,176,7.0,7.0,58,0.00,,CLR,0.00,VWS V14.01,2013-03-16 08:58:00,
2013-03-16 04:02:00,62.9,47.9,29.86,ESE,112,4.0,7.0,58,0.00,,CLR,0.00,VWS V14.01,2013-03-16 09:02:00,
2013-03-16 04:03:00,62.9,47.9,29.86,SE,127,7.0,8.0,58,0.00,,CLR,0.00,VWS V14.01,2013-03-16 09:03:00,
2013-03-16 04:04:00,62.9,47.9,29.86,SE,139,2.0,2.0,58,0.00,,CLR,0.00,VWS V14.01,2013-03-16 09:04:00,
2013-03-16 04:08:00,62.8,48.3,29.86,SSE,148,4.0,5.0,59,0.00,,CLR,0.00,VWS V14.01,2013-03-16 09:08:00,
2013-03-16 04:09:00,62.7,48.2,29.86,SE,143,6.0,7.0,59,0.00,,CLR,0.00,VWS V14.01,2013-03-16 09:09:00,
2013-03-16 04:13:00,62.6,48.1,29.86,SE,143,1.0,3.0,59,0.00,,CLR,0.00,VWS V14.01,2013-03-16 09:13:00,
2013-03-16 04:14:00,62.6,48.1,29.86,SSE,150,3.0,3.0,59,0.00,,CLR,0.00,VWS V14.01,2013-03-16 09:14:00,
2013-03-16 04:18:00,62.4,47.9,29.86,South,186,3.0,5.0,59,0.00,,CLR,0.00,VWS V14.01,2013-03-16 09:18:00,
2013-03-16 04:19:00,62.4,48.3,29.86,ESE,119,0.0,1.0,60,0.00,,CLR,0.00,VWS V14.01,2013-03-16 09:19:00,
2013-03-16 04:23:00,62.2,48.2,29.86,SSE,150,3.0,3.0,60,0.00,,CLR,0.00,VWS V14.01,2013-03-16 09:23:00,
2013-03-16 04:24:00,62.2,48.2,29.86,SE,124,3.0,5.0,60,0.00,,CLR,0.00,VWS V14.01,2013-03-16 09:24:00,
2013-03-16 04:28:00,62.2,48.2,29.85,SE,134,3.0,6.0,60,0.00,,CLR,0.00,VWS V14.01,2013-03-16 09:28:00,
2013-03-16 04:29:00,62.2,48.2,29.85,SSE,167,11.0,12.0,60,0.00,,CLR,0.00,VWS V14.01,2013-03-16 09:29:00,
2013-03-16 04:33:00,62.2,48.2,29.85,SSE,152,3.0,3.0,60,0.00,,CLR,0.00,VWS V14.01,2013-03-16 09:33:00,
2013-03-16 04:34:00,62.1,48.1,29.85,SE,142,4.0,6.0,60,0.00,,CLR,0.00,VWS V14.01,2013-03-16 09:34:00,
2013-03-16 04:38:00,62.0,48.4,29.85,SE,129,2.0,2.0,61,0.00,,CLR,0.00,VWS V14.01,2013-03-16 09:38:00,
2013-03-16 04:39:00,61.9,48.3,29.85,SE,124,2.0,4.0,61,0.00,,CLR,0.00,VWS V14.01,2013-03-16 09:39:00,
2013-03-16 04:43:00,61.8,48.2,29.85,South,170,4.0,4.0,61,0.00,,CLR,0.00,VWS V14.01,2013-03-16 09:43:00,
2013-03-16 04:44:00,61.8,48.2,29.85,SSE,155,4.0,11.0,61,0.00,,CLR,0.00,VWS V14.01,2013-03-16 09:44:00,
2013-03-16 04:45:00,61.8,48.2,29.85,South,173,4.0,7.0,61,0.00,,CLR,0.00,VWS V14.01,2013-03-16 09:45:00,
2013-03-16 04:48:00,61.8,48.7,29.85,SE,141,3.0,3.0,62,0.00,,CLR,0.00,VWS V14.01,2013-03-16 09:48:00,
2013-03-16 04:49:00,61.8,48.7,29.85,SE,141,3.0,3.0,62,0.00,,CLR,0.00,VWS V14.01,2013-03-16 09:49:00,
2013-03-16 04:50:00,61.8,48.7,29.85,ESE,107,5.0,7.0,62,0.00,,CLR,0.00,VWS V14.01,2013-03-16 09:50:00,
2013-03-16 04:54:00,61.7,48.6,29.85,SE,136,2.0,2.0,62,0.00,,CLR,0.00,VWS V14.01,2013-03-16 09:54:00,
2013-03-16 04:55:00,61.7,48.6,29.85,SE,135,3.0,6.0,62,0.00,,CLR,0.00,VWS V14.01,2013-03-16 09:55:00,
2013-03-16 04:59:00,61.5,48.4,29.85,SE,139,2.0,8.0,62,0.00,,CLR,0.00,VWS V14.01,2013-03-16 09:59:00,
2013-03-16 05:00:00,61.5,48.4,29.85,SSE,148,5.0,5.0,62,0.00,,CLR,0.00,VWS V14.01,2013-03-16 10:00:00,
2013-03-16 05:04:00,61.4,48.3,29.85,SE,139,3.0,3.0,62,0.00,,CLR,0.00,VWS V14.01,2013-03-16 10:04:00,
2013-03-16 05:05:00,61.4,48.3,29.85,SE,138,2.0,4.0,62,0.00,,CLR,0.00,VWS V14.01,2013-03-16 10:05:00,
2013-03-16 05:06:00,61.4,48.3,29.85,ESE,112,7.0,7.0,62,0.00,,CLR,0.00,VWS V14.01,2013-03-16 10:06:00,
2013-03-16 05:09:00,61.3,48.6,29.85,SE,127,3.0,3.0,63,0.00,,CLR,0.00,VWS V14.01,2013-03-16 10:09:00,
2013-03-16 05:10:00,61.3,48.6,29.85,East,96,2.0,4.0,63,0.00,,CLR,0.00,VWS V14.01,2013-03-16 10:10:00,
2013-03-16 05:12:00,61.2,48.5,29.85,SSE,155,2.0,4.0,63,0.00,,CLR,0.00,VWS V14.01,2013-03-16 10:12:00,
2013-03-16 05:15:00,61.1,48.4,29.85,ESE,114,6.0,6.0,63,0.00,,CLR,0.00,VWS V14.01,2013-03-16 10:15:00,
2013-03-16 05:16:00,61.1,48.4,29.85,SE,125,2.0,2.0,63,0.00,,CLR,0.00,VWS V14.01,2013-03-16 10:16:00,
2013-03-16 05:17:00,61.0,48.3,29.85,ESE,115,7.0,7.0,63,0.00,,CLR,0.00,VWS V14.01,2013-03-16 10:17:00,
2013-03-16 05:20:00,60.9,48.2,29.85,SE,142,4.0,6.0,63,0.00,,CLR,0.00,VWS V14.01,2013-03-16 10:20:00,
2013-03-16 05:21:00,60.9,48.2,29.85,East,92,4.0,4.0,63,0.00,,CLR,0.00,VWS V14.01,2013-03-16 10:21:00,
2013-03-16 05:22:00,60.8,48.6,29.85,SE,133,5.0,6.0,64,0.00,,CLR,0.00,VWS V14.01,2013-03-16 10:22:00,
2013-03-16 05:26:00,60.8,48.6,29.85,SE,132,2.0,7.0,64,0.00,,CLR,0.00,VWS V14.01,2013-03-16 10:26:00,
2013-03-16 05:27:00,60.7,48.5,29.85,ESE,114,1.0,5.0,64,0.00,,CLR,0.00,VWS V14.01,2013-03-16 10:27:00,
2013-03-16 05:31:00,60.6,48.4,29.85,SE,127,3.0,6.0,64,0.00,,CLR,0.00,VWS V14.01,2013-03-16 10:31:00,
2013-03-16 05:32:00,60.5,48.3,29.85,SE,144,6.0,9.0,64,0.00,,CLR,0.00,VWS V14.01,2013-03-16 10:32:00,
2013-03-16 05:37:00,60.5,48.3,29.85,SE,136,2.0,2.0,64,0.00,,CLR,0.00,VWS V14.01,2013-03-16 10:37:00,
2013-03-16 05:38:00,60.5,48.3,29.85,ESE,118,4.0,4.0,64,0.00,,CLR,0.00,VWS V14.01,2013-03-16 10:38:00,
2013-03-16 05:42:00,60.4,48.2,29.85,SSE,151,7.0,7.0,64,0.00,,CLR,0.00,VWS V14.01,2013-03-16 10:42:00,
2013-03-16 05:43:00,60.4,48.2,29.85,ESE,114,2.0,4.0,64,0.00,,CLR,0.00,VWS V14.01,2013-03-16 10:43:00,
2013-03-16 05:47:00,60.3,48.5,29.85,SSE,153,4.0,4.0,65,0.00,,CLR,0.00,VWS V14.01,2013-03-16 10:47:00,
2013-03-16 05:48:00,60.3,48.5,29.85,East,95,2.0,2.0,65,0.00,,CLR,0.00,VWS V14.01,2013-03-16 10:48:00,
2013-03-16 05:52:00,60.1,48.3,29.85,SE,135,1.0,2.0,65,0.00,,CLR,0.00,VWS V14.01,2013-03-16 10:52:00,
2013-03-16 05:53:00,60.1,48.3,29.85,ESE,121,2.0,2.0,65,0.00,,CLR,0.00,VWS V14.01,2013-03-16 10:53:00,
2013-03-16 05:57:00,59.9,48.1,29.85,ESE,121,2.0,3.0,65,0.00,,CLR,0.00,VWS V14.01,2013-03-16 10:57:00,
2013-03-16 05:58:00,59.8,48.0,29.85,SE,135,2.0,4.0,65,0.00,,CLR,0.00,VWS V14.01,2013-03-16 10:58:00,
2013-03-16 06:02:00,59.7,48.3,29.85,ESE,110,2.0,5.0,66,0.00,,CLR,0.00,VWS V14.01,2013-03-16 11:02:00,
2013-03-16 06:03:00,59.7,48.3,29.85,SSE,163,2.0,3.0,66,0.00,,CLR,0.00,VWS V14.01,2013-03-16 11:03:00,
2013-03-16 06:04:00,59.6,48.2,29.85,SE,132,2.0,2.0,66,0.00,,CLR,0.00,VWS V14.01,2013-03-16 11:04:00,
2013-03-16 06:08:00,59.5,48.2,29.85,ESE,120,0.0,0.0,66,0.00,,CLR,0.00,VWS V14.01,2013-03-16 11:08:00,
2013-03-16 06:09:00,59.5,48.2,29.85,ESE,120,0.0,0.0,66,0.00,,CLR,0.00,VWS V14.01,2013-03-16 11:09:00,
2013-03-16 06:13:00,59.3,48.4,29.85,ESE,119,2.0,2.0,67,0.00,,CLR,0.00,VWS V14.01,2013-03-16 11:13:00,
2013-03-16 06:14:00,59.3,48.4,29.85,SE,134,1.0,2.0,67,0.00,,CLR,0.00,VWS V14.01,2013-03-16 11:14:00,
2013-03-16 06:18:00,59.1,48.2,29.85,SE,130,2.0,3.0,67,0.00,,CLR,0.00,VWS V14.01,2013-03-16 11:18:00,
2013-03-16 06:19:00,59.1,48.2,29.85,SE,124,2.0,2.0,67,0.00,,CLR,0.00,VWS V14.01,2013-03-16 11:19:00,
2013-03-16 06:23:00,59.0,48.1,29.85,SE,143,1.0,2.0,67,0.00,,CLR,0.00,VWS V14.01,2013-03-16 11:23:00,
2013-03-16 06:24:00,59.0,48.1,29.85,SE,124,1.0,2.0,67,0.00,,CLR,0.00,VWS V14.01,2013-03-16 11:24:00,
2013-03-16 06:28:00,59.1,48.2,29.85,SE,131,2.0,4.0,67,0.00,,CLR,0.00,VWS V14.01,2013-03-16 11:28:00,
2013-03-16 06:29:00,59.1,48.2,29.85,SE,134,5.0,5.0,67,0.00,,CLR,0.00,VWS V14.01,2013-03-16 11:29:00,
2013-03-16 06:30:00,59.1,48.2,29.85,ESE,106,4.0,4.0,67,0.00,,CLR,0.00,VWS V14.01,2013-03-16 11:30:00,
2013-03-16 06:33:00,59.1,48.2,29.85,SE,124,3.0,3.0,67,0.00,,CLR,0.00,VWS V14.01,2013-03-16 11:33:00,
2013-03-16 06:34:00,59.1,48.2,29.85,SSE,148,2.0,4.0,67,0.00,,CLR,0.00,VWS V14.01,2013-03-16 11:34:00,
2013-03-16 06:35:00,59.1,48.2,29.85,SSE,147,2.0,2.0,67,0.00,,CLR,0.00,VWS V14.01,2013-03-16 11:35:00,
2013-03-16 06:38:00,59.0,48.1,29.85,SSE,160,5.0,6.0,67,0.00,,CLR,0.00,VWS V14.01,2013-03-16 11:38:00,
2013-03-16 06:39:00,59.0,48.1,29.85,SE,127,4.0,4.0,67,0.00,,CLR,0.00,VWS V14.01,2013-03-16 11:39:00,
2013-03-16 06:40:00,59.0,48.1,29.85,ESE,107,3.0,3.0,67,0.00,,CLR,0.00,VWS V14.01,2013-03-16 11:40:00,
2013-03-16 06:43:00,59.0,48.1,29.85,SSE,149,4.0,6.0,67,0.00,,CLR,0.00,VWS V14.01,2013-03-16 11:43:00,
2013-03-16 06:44:00,59.0,48.1,29.85,ESE,120,4.0,6.0,67,0.00,,CLR,0.00,VWS V14.01,2013-03-16 11:44:00,
2013-03-16 06:45:00,59.0,48.1,29.85,SE,144,4.0,5.0,67,0.00,,CLR,0.00,VWS V14.01,2013-03-16 11:45:00,
2013-03-16 06:48:00,59.0,48.1,29.85,SE,134,4.0,4.0,67,0.00,,CLR,0.00,VWS V14.01,2013-03-16 11:48:00,
2013-03-16 06:49:00,59.0,48.1,29.85,ESE,115,4.0,4.0,67,0.00,,CLR,0.00,VWS V14.01,2013-03-16 11:49:00,
2013-03-16 06:50:00,59.0,48.1,29.85,SE,131,4.0,6.0,67,0.00,,CLR,0.00,VWS V14.01,2013-03-16 11:50:00,
2013-03-16 06:53:00,59.0,48.1,29.85,SSE,148,4.0,7.0,67,0.00,,CLR,0.00,VWS V14.01,2013-03-16 11:53:00,
2013-03-16 06:54:00,58.9,48.0,29.85,SE,132,2.0,3.0,67,0.00,,CLR,0.00,VWS V14.01,2013-03-16 11:54:00,
2013-03-16 06:55:00,58.9,48.0,29.85,SSE,155,4.0,6.0,67,0.00,,CLR,0.00,VWS V14.01,2013-03-16 11:55:00,
2013-03-16 06:58:00,58.8,48.3,29.85,SE,146,2.0,4.0,68,0.00,,CLR,0.00,VWS V14.01,2013-03-16 11:58:00,
2013-03-16 06:59:00,58.8,48.3,29.85,SSE,149,3.0,3.0,68,0.00,,CLR,0.00,VWS V14.01,2013-03-16 11:59:00,
2013-03-16 07:00:00,58.7,48.2,29.85,SE,143,4.0,5.0,68,0.00,,CLR,0.00,VWS V14.01,2013-03-16 12:00:00,
2013-03-16 07:03:00,58.8,48.3,29.85,SE,130,4.0,5.0,68,0.00,,CLR,0.00,VWS V14.01,2013-03-16 12:03:00,
2013-03-16 07:04:00,58.8,48.3,29.85,SSE,159,2.0,3.0,68,0.00,,CLR,0.00,VWS V14.01,2013-03-16 12:04:00,
2013-03-16 07:05:00,58.7,48.2,29.85,SE,124,2.0,2.0,68,0.00,,CLR,0.00,VWS V14.01,2013-03-16 12:05:00,
2013-03-16 07:09:00,58.6,48.1,29.85,SE,131,2.0,2.0,68,0.00,,CLR,0.00,VWS V14.01,2013-03-16 12:09:00,
2013-03-16 07:10:00,58.6,48.1,29.85,SE,136,5.0,5.0,68,0.00,,CLR,0.00,VWS V14.01,2013-03-16 12:10:00,
2013-03-16 07:14:00,58.6,48.1,29.85,SSE,156,3.0,3.0,68,0.00,,CLR,0.00,VWS V14.01,2013-03-16 12:14:00,
2013-03-16 07:15:00,58.5,48.0,29.85,SE,131,6.0,6.0,68,0.00,,CLR,0.00,VWS V14.01,2013-03-16 12:15:00,
2013-03-16 07:19:00,58.4,47.9,29.85,SSE,153,2.0,5.0,68,0.00,,CLR,0.00,VWS V14.01,2013-03-16 12:19:00,
2013-03-16 07:20:00,58.4,47.9,29.86,SE,131,3.0,4.0,68,0.00,,CLR,0.00,VWS V14.01,2013-03-16 12:20:00,
2013-03-16 07:24:00,58.3,48.2,29.85,SE,127,2.0,4.0,69,0.00,,CLR,0.00,VWS V14.01,2013-03-16 12:24:00,
2013-03-16 07:25:00,58.3,48.2,29.85,East,91,3.0,4.0,69,0.00,,CLR,0.00,VWS V14.01,2013-03-16 12:25:00,
2013-03-16 07:29:00,58.2,48.1,29.85,SE,136,3.0,3.0,69,0.00,,CLR,0.00,VWS V14.01,2013-03-16 12:29:00,
2013-03-16 07:30:00,58.2,48.1,29.85,ESE,114,3.0,3.0,69,0.00,,CLR,0.00,VWS V14.01,2013-03-16 12:30:00,
2013-03-16 07:34:00,58.0,47.9,29.85,SSE,156,3.0,3.0,69,0.00,,CLR,0.00,VWS V14.01,2013-03-16 12:34:00,
2013-03-16 07:35:00,58.0,47.9,29.85,ESE,115,2.0,2.0,69,0.00,,CLR,0.00,VWS V14.01,2013-03-16 12:35:00,
2013-03-16 07:39:00,58.0,48.3,29.85,ESE,114,3.0,3.0,70,0.00,,CLR,0.00,VWS V14.01,2013-03-16 12:39:00,
2013-03-16 07:40:00,57.9,48.2,29.85,ESE,120,1.0,1.0,70,0.00,,CLR,0.00,VWS V14.01,2013-03-16 12:40:00,
2013-03-16 07:44:00,57.9,48.2,29.85,SE,131,2.0,3.0,70,0.00,,CLR,0.00,VWS V14.01,2013-03-16 12:44:00,
2013-03-16 07:45:00,57.9,48.2,29.85,SE,139,0.0,1.0,70,0.00,,CLR,0.00,VWS V14.01,2013-03-16 12:45:00,
2013-03-16 07:49:00,57.7,48.0,29.86,SE,143,0.0,0.0,70,0.00,,CLR,0.00,VWS V14.01,2013-03-16 12:49:00,
2013-03-16 07:50:00,57.6,47.9,29.86,SE,143,0.0,0.0,70,0.00,,CLR,0.00,VWS V14.01,2013-03-16 12:50:00,
2013-03-16 07:54:00,57.6,48.3,29.86,SE,136,2.0,2.0,71,0.00,,CLR,0.00,VWS V14.01,2013-03-16 12:54:00,
2013-03-16 07:55:00,57.6,48.3,29.86,ESE,111,0.0,1.0,71,0.00,,CLR,0.00,VWS V14.01,2013-03-16 12:55:00,
2013-03-16 07:59:00,57.6,48.3,29.86,SE,143,1.0,2.0,71,0.00,,CLR,0.00,VWS V14.01,2013-03-16 12:59:00,
2013-03-16 08:00:00,57.6,48.3,29.85,SE,143,2.0,3.0,71,0.00,,CLR,0.00,VWS V14.01,2013-03-16 13:00:00,
2013-03-16 08:01:00,57.6,48.3,29.86,SE,134,1.0,1.0,71,0.00,,CLR,0.00,VWS V14.01,2013-03-16 13:01:00,
2013-03-16 08:04:00,57.7,48.4,29.85,SE,131,0.0,3.0,71,0.00,,CLR,0.00,VWS V14.01,2013-03-16 13:04:00,
2013-03-16 08:05:00,57.7,48.4,29.85,SE,144,1.0,1.0,71,0.00,,CLR,0.00,VWS V14.01,2013-03-16 13:05:00,
2013-03-16 08:06:00,57.8,48.5,29.85,SE,143,0.0,0.0,71,0.00,,CLR,0.00,VWS V14.01,2013-03-16 13:06:00,
2013-03-16 08:09:00,57.8,48.5,29.85,SSE,165,2.0,2.0,71,0.00,,CLR,0.00,VWS V14.01,2013-03-16 13:09:00,
2013-03-16 08:10:00,57.9,48.6,29.85,ESE,114,1.0,3.0,71,0.00,,CLR,0.00,VWS V14.01,2013-03-16 13:10:00,
2013-03-16 08:11:00,57.9,48.2,29.85,SSE,156,2.0,2.0,70,0.00,,CLR,0.00,VWS V14.01,2013-03-16 13:11:00,
2013-03-16 08:14:00,58.1,48.4,29.85,ESE,120,2.0,3.0,70,0.00,,CLR,0.00,VWS V14.01,2013-03-16 13:14:00,
2013-03-16 08:15:00,58.2,48.5,29.85,SSE,150,4.0,4.0,70,0.00,,CLR,0.00,VWS V14.01,2013-03-16 13:15:00,
2013-03-16 08:16:00,58.2,48.5,29.85,SSE,152,1.0,2.0,70,0.00,,CLR,0.00,VWS V14.01,2013-03-16 13:16:00,
2013-03-16 08:19:00,58.5,48.4,29.85,SSE,156,2.0,5.0,69,0.00,,CLR,0.00,VWS V14.01,2013-03-16 13:19:00,
2013-03-16 08:20:00,58.5,48.4,29.85,SSE,165,2.0,2.0,69,0.00,,CLR,0.00,VWS V14.01,2013-03-16 13:20:00,
2013-03-16 08:21:00,58.6,48.5,29.85,SE,134,3.0,3.0,69,0.00,,CLR,0.00,VWS V14.01,2013-03-16 13:21:00,
2013-03-16 08:24:00,58.8,48.7,29.85,SE,136,2.0,2.0,69,0.00,,CLR,0.00,VWS V14.01,2013-03-16 13:24:00,
2013-03-16 08:25:00,58.8,48.7,29.85,SSE,149,2.0,3.0,69,0.00,,CLR,0.00,VWS V14.01,2013-03-16 13:25:00,
2013-03-16 08:27:00,58.9,48.8,29.85,SE,134,3.0,4.0,69,0.00,,CLR,0.00,VWS V14.01,2013-03-16 13:27:00,
2013-03-16 08:30:00,59.1,49.0,29.85,SE,139,2.0,3.0,69,0.00,,CLR,0.00,VWS V14.01,2013-03-16 13:30:00,
2013-03-16 08:32:00,59.2,48.7,29.85,SE,143,2.0,2.0,68,0.00,,CLR,0.00,VWS V14.01,2013-03-16 13:32:00,
2013-03-16 08:35:00,59.5,48.9,29.86,ESE,114,2.0,3.0,68,0.00,,CLR,0.00,VWS V14.01,2013-03-16 13:35:00,
2013-03-16 08:36:00,59.6,49.0,29.86,South,179,4.0,4.0,68,0.00,,CLR,0.00,VWS V14.01,2013-03-16 13:36:00,
2013-03-16 08:37:00,59.7,49.1,29.86,SSE,165,3.0,3.0,68,0.00,,CLR,0.00,VWS V14.01,2013-03-16 13:37:00,
2013-03-16 08:40:00,60.0,49.0,29.86,SE,141,4.0,5.0,67,0.00,,CLR,0.00,VWS V14.01,2013-03-16 13:40:00,
2013-03-16 08:41:00,60.0,49.0,29.86,SE,132,4.0,4.0,67,0.00,,CLR,0.00,VWS V14.01,2013-03-16 13:41:00,
2013-03-16 08:42:00,60.1,49.1,29.86,SSE,159,5.0,5.0,67,0.00,,CLR,0.00,VWS V14.01,2013-03-16 13:42:00,
2013-03-16 08:45:00,60.5,49.1,29.86,SSE,149,3.0,3.0,66,0.00,,CLR,0.00,VWS V14.01,2013-03-16 13:45:00,
2013-03-16 08:46:00,60.5,49.1,29.86,SE,134,3.0,3.0,66,0.00,,CLR,0.00,VWS V14.01,2013-03-16 13:46:00,
2013-03-16 08:47:00,60.7,49.3,29.86,SSE,158,2.0,3.0,66,0.00,,CLR,0.00,VWS V14.01,2013-03-16 13:47:00,
2013-03-16 08:51:00,61.1,49.3,29.86,SSE,162,3.0,5.0,65,0.00,,CLR,0.00,VWS V14.01,2013-03-16 13:51:00,
2013-03-16 08:52:00,61.2,49.3,29.86,ESE,120,2.0,6.0,65,0.00,,CLR,0.00,VWS V14.01,2013-03-16 13:52:00,
2013-03-16 08:56:00,61.6,49.3,29.86,SE,136,5.0,6.0,64,0.00,,CLR,0.00,VWS V14.01,2013-03-16 13:56:00,
2013-03-16 08:57:00,61.7,49.4,29.86,SSE,152,4.0,4.0,64,0.00,,CLR,0.00,VWS V14.01,2013-03-16 13:57:00,
2013-03-16 09:01:00,62.2,49.5,29.86,SSE,150,5.0,6.0,63,0.00,,CLR,0.00,VWS V14.01,2013-03-16 14:01:00,
2013-03-16 09:02:00,62.2,49.0,29.86,SSE,148,6.0,6.0,62,0.00,,CLR,0.00,VWS V14.01,2013-03-16 14:02:00,
2013-03-16 09:07:00,62.8,49.2,29.86,SSE,162,4.0,5.0,61,0.00,,CLR,0.00,VWS V14.01,2013-03-16 14:07:00,
2013-03-16 09:09:00,63.0,49.4,29.86,SE,134,8.0,10.0,61,0.00,,CLR,0.00,VWS V14.01,2013-03-16 14:09:00,
2013-03-16 09:12:00,63.2,49.5,29.86,SE,146,6.0,9.0,61,0.00,,CLR,0.00,VWS V14.01,2013-03-16 14:12:00,
2013-03-16 09:14:00,63.3,49.2,29.86,SSE,159,3.0,3.0,60,0.00,,CLR,0.00,VWS V14.01,2013-03-16 14:14:00,
2013-03-16 09:17:00,63.6,49.5,29.86,East,101,5.0,6.0,60,0.00,,CLR,0.00,VWS V14.01,2013-03-16 14:17:00,
2013-03-16 09:19:00,63.8,49.2,29.86,SSW,203,6.0,6.0,59,0.00,,CLR,0.00,VWS V14.01,2013-03-16 14:19:00,
2013-03-16 09:22:00,64.1,49.5,29.86,South,169,2.0,7.0,59,0.00,,CLR,0.00,VWS V14.01,2013-03-16 14:22:00,
2013-03-16 09:25:00,64.4,49.3,29.86,SE,131,3.0,5.0,58,0.00,,CLR,0.00,VWS V14.01,2013-03-16 14:25:00,
2013-03-16 09:27:00,64.5,49.0,29.86,SSW,207,1.0,6.0,57,0.00,,CLR,0.00,VWS V14.01,2013-03-16 14:27:00,
2013-03-16 09:28:00,64.6,49.0,29.86,SW,220,10.0,10.0,57,0.00,,CLR,0.00,VWS V14.01,2013-03-16 14:28:00,
2013-03-16 09:30:00,64.7,49.1,29.86,South,189,4.0,9.0,57,0.00,,CLR,0.00,VWS V14.01,2013-03-16 14:30:00,
2013-03-16 09:32:00,64.9,49.3,29.86,SE,136,7.0,7.0,57,0.00,,CLR,0.00,VWS V14.01,2013-03-16 14:32:00,
2013-03-16 09:33:00,65.0,49.4,29.86,SSE,152,6.0,6.0,57,0.00,,CLR,0.00,VWS V14.01,2013-03-16 14:33:00,
2013-03-16 09:35:00,65.1,49.0,29.86,SSE,167,5.0,9.0,56,0.00,,CLR,0.00,VWS V14.01,2013-03-16 14:35:00,
2013-03-16 09:37:00,65.3,49.2,29.86,SSW,205,4.0,11.0,56,0.00,,CLR,0.00,VWS V14.01,2013-03-16 14:37:00,
2013-03-16 09:38:00,65.3,48.7,29.86,SSW,194,3.0,6.0,55,0.00,,CLR,0.00,VWS V14.01,2013-03-16 14:38:00,
2013-03-16 09:40:00,65.4,48.8,29.86,SE,131,10.0,13.0,55,0.00,,CLR,0.00,VWS V14.01,2013-03-16 14:40:00,
2013-03-16 09:42:00,65.6,49.0,29.86,SW,216,11.0,11.0,55,0.00,,CLR,0.00,VWS V14.01,2013-03-16 14:42:00,
2013-03-16 09:43:00,65.6,49.0,29.86,SW,230,11.0,11.0,55,0.00,,CLR,0.00,VWS V14.01,2013-03-16 14:43:00,
2013-03-16 09:45:00,65.7,49.1,29.86,South,184,4.0,7.0,55,0.00,,CLR,0.00,VWS V14.01,2013-03-16 14:45:00,
2013-03-16 09:48:00,65.9,48.8,29.85,South,170,4.0,12.0,54,0.00,,CLR,0.00,VWS V14.01,2013-03-16 14:48:00,
2013-03-16 09:49:00,66.0,49.4,29.85,SSW,207,9.0,9.0,55,0.00,,CLR,0.00,VWS V14.01,2013-03-16 14:49:00,
2013-03-16 09:50:00,66.1,49.0,29.85,SSE,148,11.0,11.0,54,0.00,,CLR,0.00,VWS V14.01,2013-03-16 14:50:00,
2013-03-16 09:53:00,66.3,49.2,29.85,SE,144,8.0,10.0,54,0.00,,CLR,0.00,VWS V14.01,2013-03-16 14:53:00,
2013-03-16 09:54:00,66.4,49.3,29.85,SSE,150,4.0,6.0,54,0.00,,CLR,0.00,VWS V14.01,2013-03-16 14:54:00,
2013-03-16 09:55:00,66.5,48.9,29.85,South,169,6.0,9.0,53,0.00,,CLR,0.00,VWS V14.01,2013-03-16 14:55:00,
2013-03-16 09:58:00,66.6,49.0,29.85,SSW,201,2.0,5.0,53,0.00,,CLR,0.00,VWS V14.01,2013-03-16 14:58:00,
2013-03-16 09:59:00,66.7,49.0,29.85,South,181,5.0,6.0,53,0.00,,CLR,0.00,VWS V14.01,2013-03-16 14:59:00,
2013-03-16 10:00:00,66.8,49.1,29.86,SSE,158,3.0,7.0,53,0.00,,CLR,0.00,VWS V14.01,2013-03-16 15:00:00,
2013-03-16 10:03:00,67.1,49.4,29.86,SSE,155,7.0,11.0,53,0.00,,CLR,0.00,VWS V14.01,2013-03-16 15:03:00,
2013-03-16 10:04:00,67.2,49.0,29.86,SSE,149,7.0,9.0,52,0.00,,CLR,0.00,VWS V14.01,2013-03-16 15:04:00,
2013-03-16 10:05:00,67.2,49.0,29.86,SSW,204,8.0,9.0,52,0.00,,CLR,0.00,VWS V14.01,2013-03-16 15:05:00,
2013-03-16 10:08:00,67.3,49.1,29.86,ESE,117,3.0,5.0,52,0.00,,CLR,0.00,VWS V14.01,2013-03-16 15:08:00,
2013-03-16 10:09:00,67.4,49.2,29.86,East,94,5.0,5.0,52,0.00,,CLR,0.00,VWS V14.01,2013-03-16 15:09:00,
2013-03-16 10:10:00,67.7,49.5,29.86,SSW,206,4.0,7.0,52,0.00,,CLR,0.00,VWS V14.01,2013-03-16 15:10:00,
2013-03-16 10:14:00,67.9,49.1,29.86,South,174,7.0,8.0,51,0.00,,CLR,0.00,VWS V14.01,2013-03-16 15:14:00,
2013-03-16 10:15:00,68.1,49.3,29.85,SSE,155,6.0,6.0,51,0.00,,CLR,0.00,VWS V14.01,2013-03-16 15:15:00,
2013-03-16 10:19:00,68.0,49.2,29.85,SSE,156,6.0,9.0,51,0.00,,CLR,0.00,VWS V14.01,2013-03-16 15:19:00,
2013-03-16 10:20:00,68.1,49.3,29.85,SE,143,5.0,7.0,51,0.00,,CLR,0.00,VWS V14.01,2013-03-16 15:20:00,
2013-03-16 10:24:00,68.4,49.1,29.85,SW,233,6.0,11.0,50,0.00,,CLR,0.00,VWS V14.01,2013-03-16 15:24:00,
2013-03-16 10:25:00,68.4,49.1,29.85,SE,141,2.0,3.0,50,0.00,,CLR,0.00,VWS V14.01,2013-03-16 15:25:00,
2013-03-16 10:29:00,68.8,48.9,29.85,SW,219,10.0,10.0,49,0.00,,CLR,0.00,VWS V14.01,2013-03-16 15:29:00,
2013-03-16 10:30:00,68.9,49.0,29.84,SSW,201,5.0,8.0,49,0.00,,CLR,0.00,VWS V14.01,2013-03-16 15:30:00,
2013-03-16 10:31:00,69.0,49.1,29.85,SSW,193,11.0,11.0,49,0.00,,CLR,0.00,VWS V14.01,2013-03-16 15:31:00,
2013-03-16 10:34:00,69.1,49.2,29.85,SE,137,6.0,8.0,49,0.00,,CLR,0.00,VWS V14.01,2013-03-16 15:34:00,
2013-03-16 10:35:00,69.1,49.7,29.84,South,187,3.0,4.0,50,0.00,,CLR,0.00,VWS V14.01,2013-03-16 15:35:00,
2013-03-16 10:36:00,69.3,49.9,29.84,ESE,111,6.0,6.0,50,0.00,,CLR,0.00,VWS V14.01,2013-03-16 15:36:00,
2013-03-16 10:39:00,69.5,49.5,29.84,SW,215,7.0,14.0,49,0.00,,CLR,0.00,VWS V14.01,2013-03-16 15:39:00,
2013-03-16 10:40:00,69.5,49.5,29.84,SE,138,7.0,9.0,49,0.00,,CLR,0.00,VWS V14.01,2013-03-16 15:40:00,
2013-03-16 10:41:00,69.6,49.6,29.84,SSE,164,3.0,6.0,49,0.00,,CLR,0.00,VWS V14.01,2013-03-16 15:41:00,
2013-03-16 10:44:00,70.0,49.4,29.84,SE,131,6.0,11.0,48,0.00,,CLR,0.00,VWS V14.01,2013-03-16 15:44:00,
2013-03-16 10:45:00,70.0,49.4,29.84,SSE,149,9.0,10.0,48,0.00,,CLR,0.00,VWS V14.01,2013-03-16 15:45:00,
2013-03-16 10:47:00,70.0,49.4,29.84,SSE,147,12.0,13.0,48,0.00,,CLR,0.00,VWS V14.01,2013-03-16 15:47:00,
2013-03-16 10:49:00,70.0,49.4,29.84,South,174,6.0,8.0,48,0.00,,CLR,0.00,VWS V14.01,2013-03-16 15:49:00,
2013-03-16 10:50:00,70.1,49.5,29.84,SSW,203,6.0,7.0,48,0.00,,CLR,0.00,VWS V14.01,2013-03-16 15:50:00,
2013-03-16 10:52:00,70.5,49.9,29.84,South,175,4.0,10.0,48,0.00,,CLR,0.00,VWS V14.01,2013-03-16 15:52:00,
2013-03-16 10:54:00,70.6,49.4,29.84,SW,217,5.0,11.0,47,0.00,,CLR,0.00,VWS V14.01,2013-03-16 15:54:00,
2013-03-16 10:55:00,70.7,49.5,29.84,SSW,200,5.0,8.0,47,0.00,,CLR,0.00,VWS V14.01,2013-03-16 15:55:00,
2013-03-16 10:57:00,70.9,49.1,29.84,SSW,208,5.0,14.0,46,0.00,,CLR,0.00,VWS V14.01,2013-03-16 15:57:00,
2013-03-16 10:59:00,70.9,49.7,29.84,SW,225,7.0,11.0,47,0.00,,CLR,0.00,VWS V14.01,2013-03-16 15:59:00,
2013-03-16 11:00:00,71.0,49.2,29.84,SSE,153,4.0,7.0,46,0.00,,CLR,0.00,VWS V14.01,2013-03-16 16:00:00,
2013-03-16 11:02:00,71.2,50.0,29.84,SE,146,11.0,11.0,47,0.00,,CLR,0.00,VWS V14.01,2013-03-16 16:02:00,
2013-03-16 11:04:00,71.4,49.6,29.84,SSW,194,6.0,10.0,46,0.00,,CLR,0.00,VWS V14.01,2013-03-16 16:04:00,
2013-03-16 11:05:00,71.4,49.6,29.84,South,169,8.0,13.0,46,0.00,,CLR,0.00,VWS V14.01,2013-03-16 16:05:00,
2013-03-16 11:07:00,71.6,49.2,29.84,SSW,201,9.0,9.0,45,0.00,,CLR,0.00,VWS V14.01,2013-03-16 16:07:00,
2013-03-16 11:09:00,71.9,50.0,29.84,SE,131,10.0,10.0,46,0.00,,CLR,0.00,VWS V14.01,2013-03-16 16:09:00,
2013-03-16 11:10:00,71.9,49.4,29.84,SSE,149,6.0,10.0,45,0.00,,CLR,0.00,VWS V14.01,2013-03-16 16:10:00,
2013-03-16 11:12:00,72.2,49.7,29.83,SE,131,8.0,11.0,45,0.00,,CLR,0.00,VWS V14.01,2013-03-16 16:12:00,
2013-03-16 11:15:00,72.4,49.9,29.83,SE,137,4.0,9.0,45,0.00,,CLR,0.00,VWS V14.01,2013-03-16 16:15:00,
2013-03-16 11:17:00,72.7,49.5,29.83,SSW,195,6.0,11.0,44,0.00,,CLR,0.00,VWS V14.01,2013-03-16 16:17:00,
2013-03-16 11:20:00,72.8,49.6,29.83,SE,146,9.0,11.0,44,0.00,,CLR,0.00,VWS V14.01,2013-03-16 16:20:00,
2013-03-16 11:21:00,72.7,49.5,29.83,SE,146,7.0,7.0,44,0.00,,CLR,0.00,VWS V14.01,2013-03-16 16:21:00,
2013-03-16 11:22:00,72.9,49.7,29.83,SSW,210,5.0,8.0,44,0.00,,CLR,0.00,VWS V14.01,2013-03-16 16:22:00,
2013-03-16 11:25:00,73.2,50.0,29.83,SE,145,8.0,11.0,44,0.00,,CLR,0.00,VWS V14.01,2013-03-16 16:25:00,
2013-03-16 11:26:00,73.3,50.1,29.83,SSE,158,10.0,10.0,44,0.00,,CLR,0.00,VWS V14.01,2013-03-16 16:26:00,
2013-03-16 11:27:00,73.4,49.6,29.83,SSE,151,7.0,10.0,43,0.00,,CLR,0.00,VWS V14.01,2013-03-16 16:27:00,
2013-03-16 11:30:00,73.2,49.4,29.83,South,174,5.0,5.0,43,0.00,,CLR,0.00,VWS V14.01,2013-03-16 16:30:00,
2013-03-16 11:31:00,73.2,50.0,29.83,East,100,5.0,7.0,44,0.00,,CLR,0.00,VWS V14.01,2013-03-16 16:31:00,
2013-03-16 11:33:00,73.3,49.5,29.82,ESE,108,11.0,11.0,43,0.00,,CLR,0.00,VWS V14.01,2013-03-16 16:33:00,
2013-03-16 11:35:00,73.5,49.7,29.83,South,177,9.0,13.0,43,0.00,,CLR,0.00,VWS V14.01,2013-03-16 16:35:00,
2013-03-16 11:36:00,73.6,49.8,29.83,SSW,195,3.0,11.0,43,0.00,,CLR,0.00,VWS V14.01,2013-03-16 16:36:00,
2013-03-16 11:38:00,73.8,49.9,29.83,SE,144,9.0,13.0,43,0.00,,CLR,0.00,VWS V14.01,2013-03-16 16:38:00,
2013-03-16 11:40:00,74.0,49.5,29.83,South,186,2.0,9.0,42,0.00,,CLR,0.00,VWS V14.01,2013-03-16 16:40:00,
2013-03-16 11:42:00,74.2,49.7,29.82,SE,146,7.0,7.0,42,0.00,,CLR,0.00,VWS V14.01,2013-03-16 16:42:00,
2013-03-16 11:43:00,74.2,49.7,29.82,SE,131,8.0,13.0,42,0.00,,CLR,0.00,VWS V14.01,2013-03-16 16:43:00,
2013-03-16 11:45:00,74.2,49.7,29.82,SE,124,8.0,12.0,42,0.00,,CLR,0.00,VWS V14.01,2013-03-16 16:45:00,
2013-03-16 11:47:00,74.3,49.8,29.82,SE,129,6.0,7.0,42,0.00,,CLR,0.00,VWS V14.01,2013-03-16 16:47:00,
2013-03-16 11:48:00,74.4,50.5,29.82,SSE,159,7.0,11.0,43,0.00,,CLR,0.00,VWS V14.01,2013-03-16 16:48:00,
2013-03-16 11:50:00,74.7,50.1,29.82,SSE,154,7.0,9.0,42,0.00,,CLR,0.00,VWS V14.01,2013-03-16 16:50:00,
2013-03-16 11:52:00,74.8,50.2,29.82,SE,146,14.0,14.0,42,0.00,,CLR,0.00,VWS V14.01,2013-03-16 16:52:00,
2013-03-16 11:53:00,74.9,49.6,29.82,SE,146,12.0,12.0,41,0.00,,CLR,0.00,VWS V14.01,2013-03-16 16:53:00,
2013-03-16 11:55:00,75.2,49.9,29.82,SE,141,13.0,15.0,41,0.00,,CLR,0.00,VWS V14.01,2013-03-16 16:55:00,
2013-03-16 11:56:00,75.2,49.9,29.82,ESE,113,8.0,9.0,41,0.00,,CLR,0.00,VWS V14.01,2013-03-16 16:56:00,
2013-03-16 11:57:00,75.3,49.3,29.82,SE,125,6.0,11.0,40,0.00,,CLR,0.00,VWS V14.01,2013-03-16 16:57:00,
2013-03-16 11:58:00,75.4,49.4,29.82,SE,146,6.0,8.0,40,0.00,,CLR,0.00,VWS V14.01,2013-03-16 16:58:00,
2013-03-16 12:00:00,75.4,49.4,29.82,South,174,13.0,13.0,40,0.00,,CLR,0.00,VWS V14.01,2013-03-16 17:00:00,
2013-03-16 12:01:00,75.4,49.4,29.82,SE,145,5.0,6.0,40,0.00,,CLR,0.00,VWS V14.01,2013-03-16 17:01:00,
2013-03-16 12:02:00,75.5,49.5,29.82,South,180,6.0,8.0,40,0.00,,CLR,0.00,VWS V14.01,2013-03-16 17:02:00,
2013-03-16 12:03:00,75.6,49.6,29.81,SSE,165,11.0,11.0,40,0.00,,CLR,0.00,VWS V14.01,2013-03-16 17:03:00,
2013-03-16 12:05:00,75.7,49.7,29.81,SSE,149,7.0,12.0,40,0.00,,CLR,0.00,VWS V14.01,2013-03-16 17:05:00,
2013-03-16 12:06:00,75.8,49.8,29.81,South,189,5.0,7.0,40,0.00,,CLR,0.00,VWS V14.01,2013-03-16 17:06:00,
2013-03-16 12:07:00,75.9,49.9,29.81,SW,229,7.0,9.0,40,0.00,,CLR,0.00,VWS V14.01,2013-03-16 17:07:00,
2013-03-16 12:08:00,76.1,50.0,29.81,SE,129,12.0,12.0,40,0.00,,CLR,0.00,VWS V14.01,2013-03-16 17:08:00,
2013-03-16 12:10:00,76.3,49.5,29.81,SE,143,9.0,14.0,39,0.00,,CLR,0.00,VWS V14.01,2013-03-16 17:10:00,
2013-03-16 12:12:00,76.4,49.6,29.81,SSW,198,4.0,11.0,39,0.00,,CLR,0.00,VWS V14.01,2013-03-16 17:12:00,
2013-03-16 12:13:00,76.5,49.7,29.81,SE,136,3.0,7.0,39,0.00,,CLR,0.00,VWS V14.01,2013-03-16 17:13:00,
2013-03-16 12:15:00,76.8,50.0,29.81,SE,132,10.0,10.0,39,0.00,,CLR,0.00,VWS V14.01,2013-03-16 17:15:00,
2013-03-16 12:17:00,76.9,50.1,29.81,SSW,203,12.0,14.0,39,0.00,,CLR,0.00,VWS V14.01,2013-03-16 17:17:00,
2013-03-16 12:18:00,76.9,50.1,29.81,SW,225,5.0,12.0,39,0.00,,CLR,0.00,VWS V14.01,2013-03-16 17:18:00,
2013-03-16 12:20:00,77.2,49.7,29.81,SE,139,5.0,8.0,38,0.00,,CLR,0.00,VWS V14.01,2013-03-16 17:20:00,
2013-03-16 12:22:00,77.3,49.7,29.81,SSE,155,4.0,11.0,38,0.00,,CLR,0.00,VWS V14.01,2013-03-16 17:22:00,
2013-03-16 12:23:00,77.4,49.8,29.81,SSW,193,6.0,10.0,38,0.00,,CLR,0.00,VWS V14.01,2013-03-16 17:23:00,
2013-03-16 12:25:00,77.5,49.2,29.81,SSW,197,7.0,15.0,37,0.00,,CLR,0.00,VWS V14.01,2013-03-16 17:25:00,
2013-03-16 12:27:00,77.9,49.6,29.81,South,184,3.0,12.0,37,0.00,,CLR,0.00,VWS V14.01,2013-03-16 17:27:00,
2013-03-16 12:28:00,77.9,48.8,29.80,SW,214,12.0,13.0,36,0.00,,CLR,0.00,VWS V14.01,2013-03-16 17:28:00,
2013-03-16 12:30:00,78.0,49.7,29.80,SE,135,4.0,9.0,37,0.00,,CLR,0.00,VWS V14.01,2013-03-16 17:30:00,
2013-03-16 12:32:00,78.3,49.9,29.80,SW,231,5.0,10.0,37,0.00,,CLR,0.00,VWS V14.01,2013-03-16 17:32:00,
2013-03-16 12:33:00,78.4,49.3,29.80,SSE,148,6.0,12.0,36,0.00,,CLR,0.00,VWS V14.01,2013-03-16 17:33:00,
2013-03-16 12:34:00,78.4,49.3,29.80,SSE,156,3.0,8.0,36,0.00,,CLR,0.00,VWS V14.01,2013-03-16 17:34:00,
2013-03-16 12:36:00,78.6,49.4,29.80,South,181,5.0,5.0,36,0.00,,CLR,0.00,VWS V14.01,2013-03-16 17:36:00,
2013-03-16 12:37:00,78.9,49.7,29.80,SSE,167,11.0,14.0,36,0.00,,CLR,0.00,VWS V14.01,2013-03-16 17:37:00,
2013-03-16 12:38:00,79.0,49.8,29.80,SSE,156,9.0,12.0,36,0.00,,CLR,0.00,VWS V14.01,2013-03-16 17:38:00,
2013-03-16 12:39:00,79.0,49.0,29.80,SSE,149,18.0,19.0,35,0.00,,CLR,0.00,VWS V14.01,2013-03-16 17:39:00,
2013-03-16 12:41:00,78.9,49.0,29.79,South,172,6.0,10.0,35,0.00,,CLR,0.00,VWS V14.01,2013-03-16 17:41:00,
2013-03-16 12:43:00,78.9,49.0,29.79,SE,143,10.0,12.0,35,0.00,,CLR,0.00,VWS V14.01,2013-03-16 17:43:00,
2013-03-16 12:44:00,79.0,49.0,29.79,SE,137,11.0,13.0,35,0.00,,CLR,0.00,VWS V14.01,2013-03-16 17:44:00,
2013-03-16 12:46:00,79.0,49.0,29.79,SSE,165,4.0,15.0,35,0.00,,CLR,0.00,VWS V14.01,2013-03-16 17:46:00,
2013-03-16 12:48:00,79.3,50.1,29.79,SSE,156,10.0,17.0,36,0.00,,CLR,0.00,VWS V14.01,2013-03-16 17:48:00,
2013-03-16 12:49:00,79.4,48.6,29.79,South,177,8.0,14.0,34,0.00,,CLR,0.00,VWS V14.01,2013-03-16 17:49:00,
2013-03-16 12:52:00,79.4,48.6,29.79,ESE,118,7.0,14.0,34,0.00,,CLR,0.00,VWS V14.01,2013-03-16 17:52:00,
2013-03-16 12:53:00,79.5,48.7,29.79,SSE,150,3.0,13.0,34,0.00,,CLR,0.00,VWS V14.01,2013-03-16 17:53:00,
2013-03-16 12:54:00,79.6,48.8,29.79,SW,221,11.0,11.0,34,0.00,,CLR,0.00,VWS V14.01,2013-03-16 17:54:00,
2013-03-16 12:57:00,79.7,48.9,29.79,SSE,158,11.0,13.0,34,0.00,,CLR,0.00,VWS V14.01,2013-03-16 17:57:00,
2013-03-16 12:58:00,79.8,49.0,29.79,SSE,154,10.0,12.0,34,0.00,,CLR,0.00,VWS V14.01,2013-03-16 17:58:00,
2013-03-16 12:59:00,79.8,49.0,29.78,East,99,8.0,8.0,34,0.00,,CLR,0.00,VWS V14.01,2013-03-16 17:59:00,
2013-03-16 13:02:00,80.1,48.4,29.79,SSW,212,9.0,11.0,33,0.00,,CLR,0.00,VWS V14.01,2013-03-16 18:02:00,
2013-03-16 13:03:00,80.3,48.6,29.79,SSE,167,9.0,11.0,33,0.00,,CLR,0.00,VWS V14.01,2013-03-16 18:03:00,
2013-03-16 13:04:00,80.3,48.6,29.79,South,169,9.0,10.0,33,0.00,,CLR,0.00,VWS V14.01,2013-03-16 18:04:00,
2013-03-16 13:07:00,80.4,47.9,29.79,South,170,4.0,15.0,32,0.00,,CLR,0.00,VWS V14.01,2013-03-16 18:07:00,
2013-03-16 13:08:00,80.4,48.7,29.78,SSE,166,6.0,14.0,33,0.00,,CLR,0.00,VWS V14.01,2013-03-16 18:08:00,
2013-03-16 13:09:00,80.4,48.7,29.78,SSE,149,12.0,12.0,33,0.00,,CLR,0.00,VWS V14.01,2013-03-16 18:09:00,
2013-03-16 13:13:00,80.6,48.9,29.78,SE,144,9.0,10.0,33,0.00,,CLR,0.00,VWS V14.01,2013-03-16 18:13:00,
2013-03-16 13:14:00,80.6,48.0,29.78,SSW,211,9.0,15.0,32,0.00,,CLR,0.00,VWS V14.01,2013-03-16 18:14:00,
2013-03-16 13:15:00,80.6,48.0,29.78,SW,221,9.0,9.0,32,0.00,,CLR,0.00,VWS V14.01,2013-03-16 18:15:00,
2013-03-16 13:18:00,80.7,48.1,29.78,SSE,162,8.0,14.0,32,0.00,,CLR,0.00,VWS V14.01,2013-03-16 18:18:00,
2013-03-16 13:19:00,80.8,48.2,29.78,South,186,7.0,7.0,32,0.00,,CLR,0.00,VWS V14.01,2013-03-16 18:19:00,
2013-03-16 13:20:00,80.8,48.2,29.77,SSW,198,9.0,9.0,32,0.00,,CLR,0.00,VWS V14.01,2013-03-16 18:20:00,
2013-03-16 13:23:00,81.2,50.2,29.77,SSW,207,10.0,10.0,34,0.00,,CLR,0.00,VWS V14.01,2013-03-16 18:23:00,
2013-03-16 13:24:00,81.3,50.3,29.77,SSE,166,5.0,8.0,34,0.00,,CLR,0.00,VWS V14.01,2013-03-16 18:24:00,
2013-03-16 13:25:00,81.5,49.7,29.77,SE,139,4.0,4.0,33,0.00,,CLR,0.00,VWS V14.01,2013-03-16 18:25:00,
2013-03-16 13:28:00,82.1,48.5,29.77,SSE,156,14.0,15.0,31,0.00,,CLR,0.00,VWS V14.01,2013-03-16 18:28:00,
2013-03-16 13:29:00,82.1,48.5,29.78,SE,146,12.0,14.0,31,0.00,,CLR,0.00,VWS V14.01,2013-03-16 18:29:00,
2013-03-16 13:30:00,82.0,48.4,29.77,SW,214,10.0,10.0,31,0.00,,CLR,0.00,VWS V14.01,2013-03-16 18:30:00,
2013-03-16 13:33:00,82.0,49.3,29.77,SE,138,6.0,6.0,32,0.00,,CLR,0.00,VWS V14.01,2013-03-16 18:33:00,
2013-03-16 13:34:00,82.0,49.3,29.77,SE,136,8.0,12.0,32,0.00,,CLR,0.00,VWS V14.01,2013-03-16 18:34:00,
2013-03-16 13:35:00,82.1,49.3,29.77,ESE,118,6.0,6.0,32,0.00,,CLR,0.00,VWS V14.01,2013-03-16 18:35:00,
2013-03-16 13:39:00,82.1,50.2,29.77,SE,129,13.0,15.0,33,0.00,,CLR,0.00,VWS V14.01,2013-03-16 18:39:00,
2013-03-16 13:40:00,81.9,49.2,29.77,SE,131,11.0,16.0,32,0.00,,CLR,0.00,VWS V14.01,2013-03-16 18:40:00,
2013-03-16 13:44:00,81.8,49.9,29.77,SSW,207,5.0,7.0,33,0.00,,CLR,0.00,VWS V14.01,2013-03-16 18:44:00,
2013-03-16 13:45:00,81.9,49.2,29.77,SSW,212,10.0,11.0,32,0.00,,CLR,0.00,VWS V14.01,2013-03-16 18:45:00,
2013-03-16 13:49:00,82.1,48.5,29.77,SW,223,11.0,14.0,31,0.00,,CLR,0.00,VWS V14.01,2013-03-16 18:49:00,
2013-03-16 13:50:00,82.0,48.4,29.76,SSE,157,12.0,12.0,31,0.00,,CLR,0.00,VWS V14.01,2013-03-16 18:50:00,
2013-03-16 13:54:00,82.2,49.4,29.76,SE,135,9.0,10.0,32,0.00,,CLR,0.00,VWS V14.01,2013-03-16 18:54:00,
2013-03-16 13:55:00,82.2,49.4,29.76,SSE,155,11.0,14.0,32,0.00,,CLR,0.00,VWS V14.01,2013-03-16 18:55:00,
2013-03-16 13:59:00,82.4,49.6,29.76,SSW,208,19.0,19.0,32,0.00,,CLR,0.00,VWS V14.01,2013-03-16 18:59:00,
2013-03-16 14:00:00,82.4,48.8,29.76,SSE,163,17.0,17.0,31,0.00,,CLR,0.00,VWS V14.01,2013-03-16 19:00:00,
2013-03-16 14:04:00,82.6,48.9,29.76,SE,139,9.0,14.0,31,0.00,,CLR,0.00,VWS V14.01,2013-03-16 19:04:00,
2013-03-16 14:05:00,82.6,48.9,29.76,SSE,166,9.0,12.0,31,0.00,,CLR,0.00,VWS V14.01,2013-03-16 19:05:00,
2013-03-16 14:09:00,83.0,48.4,29.76,SSE,151,8.0,12.0,30,0.00,,CLR,0.00,VWS V14.01,2013-03-16 19:09:00,
2013-03-16 14:10:00,83.1,48.5,29.76,SW,218,6.0,15.0,30,0.00,,CLR,0.00,VWS V14.01,2013-03-16 19:10:00,
2013-03-16 14:14:00,83.4,48.8,29.75,SSW,201,5.0,12.0,30,0.00,,CLR,0.00,VWS V14.01,2013-03-16 19:14:00,
2013-03-16 14:15:00,83.5,48.8,29.75,East,90,5.0,10.0,30,0.00,,CLR,0.00,VWS V14.01,2013-03-16 19:15:00,
2013-03-16 14:19:00,83.7,49.0,29.75,SSE,159,6.0,14.0,30,0.00,,CLR,0.00,VWS V14.01,2013-03-16 19:19:00,
2013-03-16 14:20:00,83.7,49.0,29.75,SSE,156,5.0,10.0,30,0.00,,CLR,0.00,VWS V14.01,2013-03-16 19:20:00,
2013-03-16 14:24:00,83.6,48.0,29.75,South,190,7.0,19.0,29,0.00,,CLR,0.00,VWS V14.01,2013-03-16 19:24:00,
2013-03-16 14:25:00,83.6,48.9,29.75,SE,134,7.0,11.0,30,0.00,,CLR,0.00,VWS V14.01,2013-03-16 19:25:00,
2013-03-16 14:26:00,83.5,48.8,29.75,SSE,148,12.0,15.0,30,0.00,,CLR,0.00,VWS V14.01,2013-03-16 19:26:00,
2013-03-16 14:29:00,83.4,48.8,29.74,SSE,162,5.0,14.0,30,0.00,,CLR,0.00,VWS V14.01,2013-03-16 19:29:00,
2013-03-16 14:30:00,83.4,48.8,29.74,South,170,10.0,10.0,30,0.00,,CLR,0.00,VWS V14.01,2013-03-16 19:30:00,
2013-03-16 14:31:00,83.5,48.8,29.74,SSE,167,13.0,13.0,30,0.00,,CLR,0.00,VWS V14.01,2013-03-16 19:31:00,
2013-03-16 14:34:00,83.6,48.9,29.74,South,177,8.0,20.0,30,0.00,,CLR,0.00,VWS V14.01,2013-03-16 19:34:00,
2013-03-16 14:35:00,83.6,48.9,29.74,East,100,8.0,8.0,30,0.00,,CLR,0.00,VWS V14.01,2013-03-16 19:35:00,
2013-03-16 14:36:00,83.6,48.9,29.74,SE,141,13.0,16.0,30,0.00,,CLR,0.00,VWS V14.01,2013-03-16 19:36:00,
2013-03-16 14:40:00,83.5,47.9,29.74,South,190,7.0,7.0,29,0.00,,CLR,0.00,VWS V14.01,2013-03-16 19:40:00,
2013-03-16 14:41:00,83.6,48.9,29.74,SSE,149,12.0,12.0,30,0.00,,CLR,0.00,VWS V14.01,2013-03-16 19:41:00,
2013-03-16 14:45:00,83.8,48.2,29.73,SSE,156,11.0,11.0,29,0.00,,CLR,0.00,VWS V14.01,2013-03-16 19:45:00,
2013-03-16 14:46:00,83.8,48.2,29.73,SSE,153,6.0,6.0,29,0.00,,CLR,0.00,VWS V14.01,2013-03-16 19:46:00,
2013-03-16 14:47:00,83.9,48.3,29.73,South,181,6.0,11.0,29,0.00,,CLR,0.00,VWS V14.01,2013-03-16 19:47:00,
2013-03-16 14:50:00,84.1,48.5,29.73,SSE,155,9.0,9.0,29,0.00,,CLR,0.00,VWS V14.01,2013-03-16 19:50:00,
2013-03-16 14:51:00,84.2,48.5,29.73,SSW,193,5.0,12.0,29,0.00,,CLR,0.00,VWS V14.01,2013-03-16 19:51:00,
2013-03-16 14:52:00,84.2,49.4,29.73,South,170,4.0,9.0,30,0.00,,CLR,0.00,VWS V14.01,2013-03-16 19:52:00,
2013-03-16 14:55:00,84.4,48.7,29.72,SSW,212,9.0,15.0,29,0.00,,CLR,0.00,VWS V14.01,2013-03-16 19:55:00,
2013-03-16 14:57:00,84.6,49.8,29.72,SSE,165,7.0,10.0,30,0.00,,CLR,0.00,VWS V14.01,2013-03-16 19:57:00,
2013-03-16 15:00:00,84.7,49.0,29.72,SSE,162,11.0,14.0,29,0.00,,CLR,0.00,VWS V14.01,2013-03-16 20:00:00,
2013-03-16 15:02:00,84.6,48.9,29.72,SSE,155,11.0,19.0,29,0.00,,CLR,0.00,VWS V14.01,2013-03-16 20:02:00,
2013-03-16 15:05:00,84.5,48.8,29.72,SE,131,17.0,17.0,29,0.00,,CLR,0.00,VWS V14.01,2013-03-16 20:05:00,
2013-03-16 15:06:00,84.5,47.8,29.72,SW,236,15.0,15.0,28,0.00,,CLR,0.00,VWS V14.01,2013-03-16 20:06:00,
2013-03-16 15:07:00,84.5,48.8,29.72,South,187,12.0,15.0,29,0.00,,CLR,0.00,VWS V14.01,2013-03-16 20:07:00,
2013-03-16 15:08:00,84.5,47.8,29.72,SE,138,11.0,17.0,28,0.00,,CLR,0.00,VWS V14.01,2013-03-16 20:08:00,
2013-03-16 15:10:00,84.6,48.9,29.71,SSE,167,9.0,10.0,29,0.00,,CLR,0.00,VWS V14.01,2013-03-16 20:10:00,
2013-03-16 15:12:00,84.8,48.1,29.72,SW,222,8.0,9.0,28,0.00,,CLR,0.00,VWS V14.01,2013-03-16 20:12:00,
2013-03-16 15:13:00,84.9,48.2,29.71,SE,136,12.0,17.0,28,0.00,,CLR,0.00,VWS V14.01,2013-03-16 20:13:00,
2013-03-16 15:15:00,84.9,49.1,29.71,South,191,11.0,13.0,29,0.00,,CLR,0.00,VWS V14.01,2013-03-16 20:15:00,
2013-03-16 15:17:00,85.0,48.3,29.71,South,188,5.0,14.0,28,0.00,,CLR,0.00,VWS V14.01,2013-03-16 20:17:00,
2013-03-16 15:18:00,85.0,49.2,29.71,South,187,5.0,12.0,29,0.00,,CLR,0.00,VWS V14.01,2013-03-16 20:18:00,
2013-03-16 15:20:00,85.0,49.2,29.71,SE,131,8.0,14.0,29,0.00,,CLR,0.00,VWS V14.01,2013-03-16 20:20:00,
2013-03-16 15:22:00,85.1,49.3,29.71,SSE,150,6.0,8.0,29,0.00,,CLR,0.00,VWS V14.01,2013-03-16 20:22:00,
2013-03-16 15:23:00,85.2,49.4,29.71,SE,139,7.0,16.0,29,0.00,,CLR,0.00,VWS V14.01,2013-03-16 20:23:00,
2013-03-16 15:26:00,85.2,47.5,29.71,SE,134,5.0,8.0,27,0.00,,CLR,0.00,VWS V14.01,2013-03-16 20:26:00,
2013-03-16 15:27:00,85.2,47.5,29.71,South,183,7.0,13.0,27,0.00,,CLR,0.00,VWS V14.01,2013-03-16 20:27:00,
2013-03-16 15:28:00,85.2,48.5,29.71,SW,214,9.0,11.0,28,0.00,,CLR,0.00,VWS V14.01,2013-03-16 20:28:00,
2013-03-16 15:31:00,85.3,48.5,29.70,SSE,153,7.0,7.0,28,0.00,,CLR,0.00,VWS V14.01,2013-03-16 20:31:00,
2013-03-16 15:32:00,85.4,48.6,29.70,SSE,154,6.0,12.0,28,0.00,,CLR,0.00,VWS V14.01,2013-03-16 20:32:00,
2013-03-16 15:34:00,85.5,49.7,29.70,SSE,160,7.0,8.0,29,0.00,,CLR,0.00,VWS V14.01,2013-03-16 20:34:00,
2013-03-16 15:37:00,85.6,48.8,29.70,SE,146,9.0,12.0,28,0.00,,CLR,0.00,VWS V14.01,2013-03-16 20:37:00,
2013-03-16 15:39:00,85.7,48.9,29.70,SE,141,15.0,15.0,28,0.00,,CLR,0.00,VWS V14.01,2013-03-16 20:39:00,
2013-03-16 15:42:00,85.6,48.8,29.70,SSW,200,9.0,10.0,28,0.00,,CLR,0.00,VWS V14.01,2013-03-16 20:42:00,
2013-03-16 15:44:00,85.4,48.6,29.70,SSE,153,18.0,18.0,28,0.00,,CLR,0.00,VWS V14.01,2013-03-16 20:44:00,
2013-03-16 15:47:00,85.2,48.5,29.70,SE,135,15.0,20.0,28,0.00,,CLR,0.00,VWS V14.01,2013-03-16 20:47:00,
2013-03-16 15:48:00,85.2,49.4,29.70,South,180,6.0,12.0,29,0.00,,CLR,0.00,VWS V14.01,2013-03-16 20:48:00,
2013-03-16 15:49:00,85.2,49.4,29.70,South,181,11.0,13.0,29,0.00,,CLR,0.00,VWS V14.01,2013-03-16 20:49:00,
2013-03-16 15:52:00,85.6,48.8,29.69,SE,128,6.0,7.0,28,0.00,,CLR,0.00,VWS V14.01,2013-03-16 20:52:00,
2013-03-16 15:54:00,85.6,48.8,29.69,South,179,8.0,15.0,28,0.00,,CLR,0.00,VWS V14.01,2013-03-16 20:54:00,
2013-03-16 15:57:00,86.0,48.2,29.69,SE,128,9.0,13.0,27,0.00,,CLR,0.00,VWS V14.01,2013-03-16 20:57:00,
2013-03-16 15:58:00,86.0,49.1,29.69,SSE,165,13.0,16.0,28,0.00,,CLR,0.00,VWS V14.01,2013-03-16 20:58:00,
2013-03-16 15:59:00,86.0,49.1,29.69,SSE,158,12.0,14.0,28,0.00,,CLR,0.00,VWS V14.01,2013-03-16 20:59:00,
2013-03-16 16:02:00,86.2,48.3,29.69,SSE,156,12.0,12.0,27,0.00,,CLR,0.00,VWS V14.01,2013-03-16 21:02:00,
2013-03-16 16:03:00,86.2,48.3,29.69,SE,141,16.0,16.0,27,0.00,,CLR,0.00,VWS V14.01,2013-03-16 21:03:00,
2013-03-16 16:04:00,86.2,47.3,29.69,SE,141,7.0,12.0,26,0.00,,CLR,0.00,VWS V14.01,2013-03-16 21:04:00,
2013-03-16 16:07:00,86.3,48.4,29.69,SSE,159,12.0,14.0,27,0.00,,CLR,0.00,VWS V14.01,2013-03-16 21:07:00,
2013-03-16 16:08:00,86.4,48.5,29.69,SE,138,14.0,21.0,27,0.00,,CLR,0.00,VWS V14.01,2013-03-16 21:08:00,
2013-03-16 16:09:00,86.3,48.4,29.69,SSE,148,7.0,11.0,27,0.00,,CLR,0.00,VWS V14.01,2013-03-16 21:09:00,
2013-03-16 16:12:00,86.4,48.5,29.68,SSE,147,6.0,9.0,27,0.00,,CLR,0.00,VWS V14.01,2013-03-16 21:12:00,
2013-03-16 16:13:00,86.5,49.6,29.68,SE,146,6.0,9.0,28,0.00,,CLR,0.00,VWS V14.01,2013-03-16 21:13:00,
2013-03-16 16:14:00,86.6,49.7,29.68,SSE,153,6.0,12.0,28,0.00,,CLR,0.00,VWS V14.01,2013-03-16 21:14:00,
2013-03-16 16:15:00,86.7,49.7,29.68,SSE,150,11.0,11.0,28,0.00,,CLR,0.00,VWS V14.01,2013-03-16 21:15:00,
2013-03-16 16:17:00,86.6,48.7,29.68,South,179,9.0,16.0,27,0.00,,CLR,0.00,VWS V14.01,2013-03-16 21:17:00,
2013-03-16 16:18:00,86.5,48.6,29.68,South,186,7.0,18.0,27,0.00,,CLR,0.00,VWS V14.01,2013-03-16 21:18:00,
2013-03-16 16:19:00,86.5,48.6,29.69,SE,134,7.0,20.0,27,0.00,,CLR,0.00,VWS V14.01,2013-03-16 21:19:00,
2013-03-16 16:20:00,86.4,48.5,29.68,SE,144,11.0,11.0,27,0.00,,CLR,0.00,VWS V14.01,2013-03-16 21:20:00,
2013-03-16 16:23:00,86.3,48.4,29.68,South,182,5.0,8.0,27,0.00,,CLR,0.00,VWS V14.01,2013-03-16 21:23:00,
2013-03-16 16:24:00,86.4,48.5,29.68,SSE,150,3.0,7.0,27,0.00,,CLR,0.00,VWS V14.01,2013-03-16 21:24:00,
2013-03-16 16:25:00,86.4,48.5,29.68,SSE,157,5.0,5.0,27,0.00,,CLR,0.00,VWS V14.01,2013-03-16 21:25:00,
2013-03-16 16:28:00,86.6,49.7,29.68,SSE,150,14.0,15.0,28,0.00,,CLR,0.00,VWS V14.01,2013-03-16 21:28:00,
2013-03-16 16:29:00,86.4,49.5,29.68,South,169,10.0,17.0,28,0.00,,CLR,0.00,VWS V14.01,2013-03-16 21:29:00,
2013-03-16 16:30:00,86.4,49.5,29.68,South,184,7.0,10.0,28,0.00,,CLR,0.00,VWS V14.01,2013-03-16 21:30:00,
2013-03-16 16:33:00,86.2,49.3,29.68,SSE,155,16.0,16.0,28,0.00,,CLR,0.00,VWS V14.01,2013-03-16 21:33:00,
2013-03-16 16:34:00,86.1,49.2,29.68,SSE,155,8.0,14.0,28,0.00,,CLR,0.00,VWS V14.01,2013-03-16 21:34:00,
2013-03-16 16:35:00,86.0,49.1,29.68,SE,142,6.0,12.0,28,0.00,,CLR,0.00,VWS V14.01,2013-03-16 21:35:00,
2013-03-16 16:38:00,85.9,49.0,29.68,SE,132,5.0,18.0,28,0.00,,CLR,0.00,VWS V14.01,2013-03-16 21:38:00,
2013-03-16 16:39:00,85.9,50.0,29.68,SSW,194,7.0,11.0,29,0.00,,CLR,0.00,VWS V14.01,2013-03-16 21:39:00,
2013-03-16 16:40:00,86.0,50.1,29.68,SSW,198,7.0,8.0,29,0.00,,CLR,0.00,VWS V14.01,2013-03-16 21:40:00,
2013-03-16 16:43:00,86.1,50.2,29.68,SE,127,12.0,14.0,29,0.00,,CLR,0.00,VWS V14.01,2013-03-16 21:43:00,
2013-03-16 16:44:00,86.1,50.2,29.68,SE,144,7.0,13.0,29,0.00,,CLR,0.00,VWS V14.01,2013-03-16 21:44:00,
2013-03-16 16:45:00,86.1,50.2,29.68,SSE,165,8.0,10.0,29,0.00,,CLR,0.00,VWS V14.01,2013-03-16 21:45:00,
2013-03-16 16:46:00,86.3,50.3,29.68,SW,214,5.0,10.0,29,0.00,,CLR,0.00,VWS V14.01,2013-03-16 21:46:00,
2013-03-16 16:48:00,86.3,49.4,29.68,SE,131,7.0,13.0,28,0.00,,CLR,0.00,VWS V14.01,2013-03-16 21:48:00,
2013-03-16 16:49:00,86.3,49.4,29.68,South,169,12.0,15.0,28,0.00,,CLR,0.00,VWS V14.01,2013-03-16 21:49:00,
2013-03-16 16:50:00,86.3,49.4,29.68,SE,135,7.0,10.0,28,0.00,,CLR,0.00,VWS V14.01,2013-03-16 21:50:00,
2013-03-16 16:52:00,86.2,49.3,29.68,SE,129,9.0,10.0,28,0.00,,CLR,0.00,VWS V14.01,2013-03-16 21:52:00,
2013-03-16 16:54:00,86.2,49.3,29.68,South,169,8.0,12.0,28,0.00,,CLR,0.00,VWS V14.01,2013-03-16 21:54:00,
2013-03-16 16:55:00,86.2,49.3,29.68,SE,133,8.0,13.0,28,0.00,,CLR,0.00,VWS V14.01,2013-03-16 21:55:00,
2013-03-16 16:57:00,86.0,49.1,29.68,East,89,6.0,15.0,28,0.00,,CLR,0.00,VWS V14.01,2013-03-16 21:57:00,
2013-03-16 16:59:00,85.9,50.0,29.68,ESE,110,16.0,16.0,29,0.00,,CLR,0.00,VWS V14.01,2013-03-16 21:59:00,
2013-03-16 17:00:00,85.8,49.9,29.68,SE,136,7.0,9.0,29,0.00,,CLR,0.00,VWS V14.01,2013-03-16 22:00:00,
2013-03-16 17:02:00,85.8,49.9,29.68,SSE,153,7.0,8.0,29,0.00,,CLR,0.00,VWS V14.01,2013-03-16 22:02:00,
2013-03-16 17:04:00,85.8,50.8,29.68,SSE,155,4.0,6.0,30,0.00,,CLR,0.00,VWS V14.01,2013-03-16 22:04:00,
2013-03-16 17:05:00,85.8,50.8,29.68,SE,145,7.0,9.0,30,0.00,,CLR,0.00,VWS V14.01,2013-03-16 22:05:00,
2013-03-16 17:07:00,86.1,51.1,29.68,SE,146,5.0,6.0,30,0.00,,CLR,0.00,VWS V14.01,2013-03-16 22:07:00,
2013-03-16 17:09:00,86.3,50.3,29.67,SE,146,9.0,13.0,29,0.00,,CLR,0.00,VWS V14.01,2013-03-16 22:09:00,
2013-03-16 17:10:00,86.3,50.3,29.68,SE,142,15.0,15.0,29,0.00,,CLR,0.00,VWS V14.01,2013-03-16 22:10:00,
2013-03-16 17:12:00,86.3,50.3,29.68,SE,139,6.0,15.0,29,0.00,,CLR,0.00,VWS V14.01,2013-03-16 22:12:00,
2013-03-16 17:14:00,86.3,50.3,29.67,ESE,123,15.0,24.0,29,0.00,,CLR,0.00,VWS V14.01,2013-03-16 22:14:00,
2013-03-16 17:15:00,86.2,50.2,29.67,SE,136,17.0,17.0,29,0.00,,CLR,0.00,VWS V14.01,2013-03-16 22:15:00,
2013-03-16 17:17:00,86.2,49.3,29.67,SSE,155,9.0,15.0,28,0.00,,CLR,0.00,VWS V14.01,2013-03-16 22:17:00,
2013-03-16 17:19:00,86.2,49.3,29.67,ESE,119,15.0,15.0,28,0.00,,CLR,0.00,VWS V14.01,2013-03-16 22:19:00,
2013-03-16 17:20:00,86.2,49.3,29.67,SE,131,9.0,15.0,28,0.00,,CLR,0.00,VWS V14.01,2013-03-16 22:20:00,
2013-03-16 17:22:00,86.4,49.5,29.67,SSW,210,8.0,9.0,28,0.00,,CLR,0.00,VWS V14.01,2013-03-16 22:22:00,
2013-03-16 17:25:00,86.5,49.6,29.67,SSE,150,14.0,16.0,28,0.00,,CLR,0.00,VWS V14.01,2013-03-16 22:25:00,
2013-03-16 17:27:00,86.5,49.6,29.67,SE,138,10.0,12.0,28,0.00,,CLR,0.00,VWS V14.01,2013-03-16 22:27:00,
2013-03-16 17:30:00,86.3,49.4,29.67,SSE,152,9.0,16.0,28,0.00,,CLR,0.00,VWS V14.01,2013-03-16 22:30:00,
2013-03-16 17:33:00,86.2,49.3,29.67,SE,136,10.0,10.0,28,0.00,,CLR,0.00,VWS V14.01,2013-03-16 22:33:00,
2013-03-16 17:35:00,86.1,49.2,29.67,South,187,7.0,16.0,28,0.00,,CLR,0.00,VWS V14.01,2013-03-16 22:35:00,
2013-03-16 17:38:00,85.9,49.0,29.67,South,186,10.0,10.0,28,0.00,,CLR,0.00,VWS V14.01,2013-03-16 22:38:00,
2013-03-16 17:40:00,86.0,50.1,29.67,SE,141,5.0,9.0,29,0.00,,CLR,0.00,VWS V14.01,2013-03-16 22:40:00,
2013-03-16 17:41:00,86.0,49.1,29.67,SE,134,8.0,13.0,28,0.00,,CLR,0.00,VWS V14.01,2013-03-16 22:41:00,
2013-03-16 17:43:00,85.9,49.0,29.67,South,169,14.0,14.0,28,0.00,,CLR,0.00,VWS V14.01,2013-03-16 22:43:00,
2013-03-16 17:45:00,85.8,49.0,29.67,SSE,147,6.0,17.0,28,0.00,,CLR,0.00,VWS V14.01,2013-03-16 22:45:00,
2013-03-16 17:46:00,85.8,49.9,29.67,South,176,7.0,10.0,29,0.00,,CLR,0.00,VWS V14.01,2013-03-16 22:46:00,
2013-03-16 17:48:00,85.7,48.9,29.67,SSE,160,12.0,15.0,28,0.00,,CLR,0.00,VWS V14.01,2013-03-16 22:48:00,
2013-03-16 17:50:00,85.5,49.7,29.67,SSE,166,8.0,10.0,29,0.00,,CLR,0.00,VWS V14.01,2013-03-16 22:50:00,
2013-03-16 17:52:00,85.4,49.6,29.67,SSW,201,8.0,11.0,29,0.00,,CLR,0.00,VWS V14.01,2013-03-16 22:52:00,
2013-03-16 17:53:00,85.3,49.5,29.67,SE,136,8.0,13.0,29,0.00,,CLR,0.00,VWS V14.01,2013-03-16 22:53:00,
2013-03-16 17:55:00,85.0,49.2,29.67,SSE,158,8.0,15.0,29,0.00,,CLR,0.00,VWS V14.01,2013-03-16 22:55:00,
2013-03-16 17:57:00,84.8,49.0,29.67,SSE,149,10.0,13.0,29,0.00,,CLR,0.00,VWS V14.01,2013-03-16 22:57:00,
2013-03-16 17:58:00,84.7,49.0,29.67,SSE,152,7.0,7.0,29,0.00,,CLR,0.00,VWS V14.01,2013-03-16 22:58:00,
2013-03-16 18:00:00,84.6,48.9,29.67,ESE,114,10.0,14.0,29,0.00,,CLR,0.00,VWS V14.01,2013-03-16 23:00:00,
2013-03-16 18:02:00,84.5,49.7,29.67,SE,145,6.0,8.0,30,0.00,,CLR,0.00,VWS V14.01,2013-03-16 23:02:00,
2013-03-16 18:03:00,84.4,49.6,29.67,SE,145,4.0,7.0,30,0.00,,CLR,0.00,VWS V14.01,2013-03-16 23:03:00,
2013-03-16 18:05:00,84.4,48.7,29.67,SSE,154,8.0,8.0,29,0.00,,CLR,0.00,VWS V14.01,2013-03-16 23:05:00,
2013-03-16 18:07:00,84.5,49.7,29.67,SSE,166,6.0,10.0,30,0.00,,CLR,0.00,VWS V14.01,2013-03-16 23:07:00,
2013-03-16 18:08:00,84.5,49.7,29.67,SSE,149,4.0,11.0,30,0.00,,CLR,0.00,VWS V14.01,2013-03-16 23:08:00,
2013-03-16 18:10:00,84.6,48.9,29.67,SSE,165,3.0,7.0,29,0.00,,CLR,0.00,VWS V14.01,2013-03-16 23:10:00,
2013-03-16 18:12:00,84.6,48.9,29.67,ESE,117,6.0,9.0,29,0.00,,CLR,0.00,VWS V14.01,2013-03-16 23:12:00,
2013-03-16 18:13:00,84.7,49.0,29.67,SSW,195,6.0,11.0,29,0.00,,CLR,0.00,VWS V14.01,2013-03-16 23:13:00,
2013-03-16 18:15:00,84.7,49.0,29.67,SE,131,5.0,14.0,29,0.00,,CLR,0.00,VWS V14.01,2013-03-16 23:15:00,
2013-03-16 18:18:00,84.7,49.0,29.67,South,170,8.0,15.0,29,0.00,,CLR,0.00,VWS V14.01,2013-03-16 23:18:00,
2013-03-16 18:20:00,84.7,49.0,29.67,SSE,149,10.0,11.0,29,0.00,,CLR,0.00,VWS V14.01,2013-03-16 23:20:00,
2013-03-16 18:23:00,84.7,49.9,29.67,ESE,122,8.0,9.0,30,0.00,,CLR,0.00,VWS V14.01,2013-03-16 23:23:00,
2013-03-16 18:25:00,84.7,49.9,29.67,South,174,8.0,13.0,30,0.00,,CLR,0.00,VWS V14.01,2013-03-16 23:25:00,
2013-03-16 18:28:00,84.6,49.8,29.67,SSE,156,12.0,15.0,30,0.00,,CLR,0.00,VWS V14.01,2013-03-16 23:28:00,
2013-03-16 18:30:00,84.5,49.7,29.67,SE,132,9.0,14.0,30,0.00,,CLR,0.00,VWS V14.01,2013-03-16 23:30:00,
2013-03-16 18:33:00,84.4,49.6,29.67,SE,133,10.0,17.0,30,0.00,,CLR,0.00,VWS V14.01,2013-03-16 23:33:00,
2013-03-16 18:35:00,84.3,50.4,29.67,SE,145,6.0,8.0,31,0.00,,CLR,0.00,VWS V14.01,2013-03-16 23:35:00,
2013-03-16 18:38:00,84.3,50.4,29.67,South,169,6.0,14.0,31,0.00,,CLR,0.00,VWS V14.01,2013-03-16 23:38:00,
2013-03-16 18:40:00,84.2,50.3,29.68,ESE,123,4.0,8.0,31,0.00,,CLR,0.00,VWS V14.01,2013-03-16 23:40:00,
2013-03-16 18:41:00,84.2,50.3,29.67,SE,135,6.0,17.0,31,0.00,,CLR,0.00,VWS V14.01,2013-03-16 23:41:00,
2013-03-16 18:43:00,84.0,50.2,29.67,SE,141,13.0,13.0,31,0.00,,CLR,0.00,VWS V14.01,2013-03-16 23:43:00,
2013-03-16 18:46:00,83.8,50.8,29.67,ESE,108,4.0,5.0,32,0.00,,CLR,0.00,VWS V14.01,2013-03-16 23:46:00,
2013-03-16 18:47:00,83.7,50.7,29.67,SE,146,10.0,13.0,32,0.00,,CLR,0.00,VWS V14.01,2013-03-16 23:47:00,
2013-03-16 18:48:00,83.5,50.6,29.67,SE,136,12.0,12.0,32,0.00,,CLR,0.00,VWS V14.01,2013-03-16 23:48:00,
2013-03-16 18:49:00,83.4,50.5,29.67,East,98,8.0,10.0,32,0.00,,CLR,0.00,VWS V14.01,2013-03-16 23:49:00,
2013-03-16 18:51:00,83.2,50.3,29.67,SSE,150,6.0,6.0,32,0.00,,CLR,0.00,VWS V14.01,2013-03-16 23:51:00,
2013-03-16 18:52:00,83.1,50.2,29.67,SE,130,7.0,8.0,32,0.00,,CLR,0.00,VWS V14.01,2013-03-16 23:52:00,
2013-03-16 18:53:00,83.0,51.0,29.67,SSE,153,5.0,7.0,33,0.00,,CLR,0.00,VWS V14.01,2013-03-16 23:53:00,
2013-03-16 18:54:00,82.9,50.9,29.67,SSE,153,5.0,11.0,33,0.00,,CLR,0.00,VWS V14.01,2013-03-16 23:54:00,
2013-03-16 18:56:00,82.8,50.0,29.67,ESE,102,5.0,10.0,32,0.00,,CLR,0.00,VWS V14.01,2013-03-16 23:56:00,
2013-03-16 18:57:00,82.7,50.7,29.67,ESE,121,7.0,10.0,33,0.00,,CLR,0.00,VWS V14.01,2013-03-16 23:57:00,
2013-03-16 18:58:00,82.6,50.6,29.67,SE,132,6.0,8.0,33,0.00,,CLR,0.00,VWS V14.01,2013-03-16 23:58:00,
2013-03-16 18:59:00,82.5,50.5,29.67,SSE,158,6.0,11.0,33,0.00,,CLR,0.00,VWS V14.01,2013-03-16 23:59:00,
2013-03-16 19:01:00,82.4,50.4,29.67,SSE,158,7.0,11.0,33,0.00,,CLR,0.00,VWS V14.01,2013-03-17 00:01:00,
2013-03-16 19:02:00,82.3,50.3,29.67,South,173,6.0,10.0,33,0.00,,CLR,0.00,VWS V14.01,2013-03-17 00:02:00,
2013-03-16 19:03:00,82.3,49.5,29.67,SE,139,14.0,18.0,32,0.00,,CLR,0.00,VWS V14.01,2013-03-17 00:03:00,
2013-03-16 19:04:00,82.2,49.4,29.67,East,96,6.0,6.0,32,0.00,,CLR,0.00,VWS V14.01,2013-03-17 00:04:00,
2013-03-16 19:06:00,82.1,50.2,29.67,SE,143,4.0,6.0,33,0.00,,CLR,0.00,VWS V14.01,2013-03-17 00:06:00,
2013-03-16 19:07:00,82.0,50.1,29.67,SE,143,4.0,4.0,33,0.00,,CLR,0.00,VWS V14.01,2013-03-17 00:07:00,
2013-03-16 19:08:00,81.9,50.0,29.67,SE,144,10.0,11.0,33,0.00,,CLR,0.00,VWS V14.01,2013-03-17 00:08:00,
2013-03-16 19:10:00,81.8,49.9,29.67,SE,144,5.0,8.0,33,0.00,,CLR,0.00,VWS V14.01,2013-03-17 00:10:00,
2013-03-16 19:11:00,81.7,49.8,29.67,SE,141,7.0,9.0,33,0.00,,CLR,0.00,VWS V14.01,2013-03-17 00:11:00,
2013-03-16 19:13:00,81.7,49.8,29.68,SE,146,6.0,7.0,33,0.00,,CLR,0.00,VWS V14.01,2013-03-17 00:13:00,
2013-03-16 19:15:00,81.6,49.7,29.68,ESE,118,6.0,9.0,33,0.00,,CLR,0.00,VWS V14.01,2013-03-17 00:15:00,
2013-03-16 19:16:00,81.4,49.6,29.68,ESE,117,5.0,5.0,33,0.00,,CLR,0.00,VWS V14.01,2013-03-17 00:16:00,
2013-03-16 19:18:00,81.4,50.4,29.68,SE,146,8.0,10.0,34,0.00,,CLR,0.00,VWS V14.01,2013-03-17 00:18:00,
2013-03-16 19:20:00,81.2,50.2,29.68,SSE,157,5.0,11.0,34,0.00,,CLR,0.00,VWS V14.01,2013-03-17 00:20:00,
2013-03-16 19:21:00,81.1,50.1,29.68,SE,143,5.0,5.0,34,0.00,,CLR,0.00,VWS V14.01,2013-03-17 00:21:00,
2013-03-16 19:23:00,81.0,50.0,29.68,SSE,151,5.0,7.0,34,0.00,,CLR,0.00,VWS V14.01,2013-03-17 00:23:00,
2013-03-16 19:24:00,81.0,50.8,29.68,SSE,153,3.0,5.0,35,0.00,,CLR,0.00,VWS V14.01,2013-03-17 00:24:00,
2013-03-16 19:25:00,80.9,50.7,29.68,SE,126,3.0,7.0,35,0.00,,CLR,0.00,VWS V14.01,2013-03-17 00:25:00,
2013-03-16 19:26:00,80.8,50.6,29.68,SE,138,6.0,10.0,35,0.00,,CLR,0.00,VWS V14.01,2013-03-17 00:26:00,
2013-03-16 19:28:00,80.7,50.5,29.68,ESE,113,8.0,9.0,35,0.00,,CLR,0.00,VWS V14.01,2013-03-17 00:28:00,
2013-03-16 19:29:00,80.7,50.5,29.68,SSE,160,5.0,5.0,35,0.00,,CLR,0.00,VWS V14.01,2013-03-17 00:29:00,
2013-03-16 19:30:00,80.5,50.4,29.68,SE,131,6.0,8.0,35,0.00,,CLR,0.00,VWS V14.01,2013-03-17 00:30:00,
2013-03-16 19:31:00,80.4,50.3,29.68,SE,131,3.0,7.0,35,0.00,,CLR,0.00,VWS V14.01,2013-03-17 00:31:00,
2013-03-16 19:33:00,80.3,50.9,29.68,ESE,117,8.0,9.0,36,0.00,,CLR,0.00,VWS V14.01,2013-03-17 00:33:00,
2013-03-16 19:34:00,80.3,50.9,29.68,ESE,122,7.0,8.0,36,0.00,,CLR,0.00,VWS V14.01,2013-03-17 00:34:00,
2013-03-16 19:35:00,80.2,50.8,29.68,SSE,153,4.0,9.0,36,0.00,,CLR,0.00,VWS V14.01,2013-03-17 00:35:00,
2013-03-16 19:37:00,80.1,50.8,29.68,ESE,114,4.0,6.0,36,0.00,,CLR,0.00,VWS V14.01,2013-03-17 00:37:00,
2013-03-16 19:38:00,79.9,50.6,29.68,ESE,122,10.0,10.0,36,0.00,,CLR,0.00,VWS V14.01,2013-03-17 00:38:00,
2013-03-16 19:39:00,79.9,50.6,29.68,SE,132,6.0,10.0,36,0.00,,CLR,0.00,VWS V14.01,2013-03-17 00:39:00,
2013-03-16 19:40:00,79.8,50.5,29.68,SE,144,3.0,5.0,36,0.00,,CLR,0.00,VWS V14.01,2013-03-17 00:40:00,
2013-03-16 19:42:00,79.7,51.2,29.68,ESE,121,3.0,5.0,37,0.00,,CLR,0.00,VWS V14.01,2013-03-17 00:42:00,
2013-03-16 19:43:00,79.5,51.0,29.68,SE,131,6.0,7.0,37,0.00,,CLR,0.00,VWS V14.01,2013-03-17 00:43:00,
2013-03-16 19:44:00,79.5,51.0,29.68,SE,125,5.0,7.0,37,0.00,,CLR,0.00,VWS V14.01,2013-03-17 00:44:00,
2013-03-16 19:46:00,79.4,50.9,29.68,SE,131,4.0,5.0,37,0.00,,CLR,0.00,VWS V14.01,2013-03-17 00:46:00,
2013-03-16 19:47:00,79.3,50.8,29.68,ESE,110,5.0,8.0,37,0.00,,CLR,0.00,VWS V14.01,2013-03-17 00:47:00,
2013-03-16 19:48:00,79.3,50.8,29.68,ESE,123,8.0,8.0,37,0.00,,CLR,0.00,VWS V14.01,2013-03-17 00:48:00,
2013-03-16 19:49:00,79.2,50.7,29.68,SSE,159,3.0,9.0,37,0.00,,CLR,0.00,VWS V14.01,2013-03-17 00:49:00,
2013-03-16 19:51:00,79.1,50.6,29.68,SE,132,4.0,8.0,37,0.00,,CLR,0.00,VWS V14.01,2013-03-17 00:51:00,
2013-03-16 19:52:00,79.0,50.5,29.68,SE,131,5.0,8.0,37,0.00,,CLR,0.00,VWS V14.01,2013-03-17 00:52:00,
2013-03-16 19:53:00,79.0,50.5,29.68,SE,136,5.0,8.0,37,0.00,,CLR,0.00,VWS V14.01,2013-03-17 00:53:00,
2013-03-16 19:54:00,79.0,50.5,29.68,SE,128,5.0,6.0,37,0.00,,CLR,0.00,VWS V14.01,2013-03-17 00:54:00,
2013-03-16 19:56:00,79.0,50.5,29.68,ESE,114,5.0,8.0,37,0.00,,CLR,0.00,VWS V14.01,2013-03-17 00:56:00,
2013-03-16 19:57:00,78.9,50.4,29.68,ESE,114,4.0,7.0,37,0.00,,CLR,0.00,VWS V14.01,2013-03-17 00:57:00,
2013-03-16 19:58:00,78.8,50.4,29.68,SE,136,4.0,5.0,37,0.00,,CLR,0.00,VWS V14.01,2013-03-17 00:58:00,
2013-03-16 19:59:00,78.8,50.4,29.68,ESE,115,11.0,11.0,37,0.00,,CLR,0.00,VWS V14.01,2013-03-17 00:59:00,
2013-03-16 20:02:00,78.7,50.3,29.68,SE,125,7.0,11.0,37,0.00,,CLR,0.00,VWS V14.01,2013-03-17 01:02:00,
2013-03-16 20:04:00,78.7,51.0,29.68,SE,140,4.0,6.0,38,0.00,,CLR,0.00,VWS V14.01,2013-03-17 01:04:00,
2013-03-16 20:07:00,78.5,50.1,29.68,SE,137,6.0,8.0,37,0.00,,CLR,0.00,VWS V14.01,2013-03-17 01:07:00,
2013-03-16 20:09:00,78.4,50.7,29.68,SE,141,3.0,5.0,38,0.00,,CLR,0.00,VWS V14.01,2013-03-17 01:09:00,
2013-03-16 20:12:00,78.3,50.6,29.68,SE,131,3.0,7.0,38,0.00,,CLR,0.00,VWS V14.01,2013-03-17 01:12:00,
2013-03-16 20:14:00,78.2,50.5,29.68,ESE,117,7.0,8.0,38,0.00,,CLR,0.00,VWS V14.01,2013-03-17 01:14:00,
2013-03-16 20:17:00,78.1,50.5,29.68,ESE,117,7.0,8.0,38,0.00,,CLR,0.00,VWS V14.01,2013-03-17 01:17:00,
2013-03-16 20:18:00,78.1,50.5,29.68,ESE,118,5.0,7.0,38,0.00,,CLR,0.00,VWS V14.01,2013-03-17 01:18:00,
2013-03-16 20:19:00,78.0,50.4,29.68,SE,132,7.0,10.0,38,0.00,,CLR,0.00,VWS V14.01,2013-03-17 01:19:00,
2013-03-16 20:23:00,77.9,50.3,29.68,SSE,149,8.0,9.0,38,0.00,,CLR,0.00,VWS V14.01,2013-03-17 01:23:00,
2013-03-16 20:24:00,77.8,50.2,29.68,SE,136,8.0,9.0,38,0.00,,CLR,0.00,VWS V14.01,2013-03-17 01:24:00,
2013-03-16 20:28:00,77.6,50.7,29.68,ESE,113,5.0,7.0,39,0.00,,CLR,0.00,VWS V14.01,2013-03-17 01:28:00,
2013-03-16 20:29:00,77.5,50.6,29.68,SE,131,7.0,9.0,39,0.00,,CLR,0.00,VWS V14.01,2013-03-17 01:29:00,
2013-03-16 20:33:00,77.3,50.4,29.68,SE,128,5.0,5.0,39,0.00,,CLR,0.00,VWS V14.01,2013-03-17 01:33:00,
2013-03-16 20:34:00,77.2,50.3,29.69,ESE,111,6.0,6.0,39,0.00,,CLR,0.00,VWS V14.01,2013-03-17 01:34:00,
2013-03-16 20:35:00,77.2,51.0,29.69,ESE,108,4.0,5.0,40,0.00,,CLR,0.00,VWS V14.01,2013-03-17 01:35:00,
2013-03-16 20:38:00,77.0,50.9,29.69,South,178,2.0,4.0,40,0.00,,CLR,0.00,VWS V14.01,2013-03-17 01:38:00,
2013-03-16 20:39:00,77.0,50.9,29.69,ESE,119,6.0,6.0,40,0.00,,CLR,0.00,VWS V14.01,2013-03-17 01:39:00,
2013-03-16 20:40:00,76.9,50.8,29.69,ESE,121,10.0,10.0,40,0.00,,CLR,0.00,VWS V14.01,2013-03-17 01:40:00,
2013-03-16 20:43:00,76.7,51.2,29.69,SE,146,5.0,5.0,41,0.00,,CLR,0.00,VWS V14.01,2013-03-17 01:43:00,
2013-03-16 20:44:00,76.7,51.2,29.69,SE,129,8.0,10.0,41,0.00,,CLR,0.00,VWS V14.01,2013-03-17 01:44:00,
2013-03-16 20:45:00,76.6,51.2,29.69,ESE,115,5.0,7.0,41,0.00,,CLR,0.00,VWS V14.01,2013-03-17 01:45:00,
2013-03-16 20:48:00,76.5,51.1,29.69,SE,146,5.0,7.0,41,0.00,,CLR,0.00,VWS V14.01,2013-03-17 01:48:00,
2013-03-16 20:49:00,76.4,51.6,29.69,SE,124,6.0,7.0,42,0.00,,CLR,0.00,VWS V14.01,2013-03-17 01:49:00,
2013-03-16 20:50:00,76.4,51.6,29.69,SE,137,5.0,8.0,42,0.00,,CLR,0.00,VWS V14.01,2013-03-17 01:50:00,
2013-03-16 20:53:00,76.2,51.5,29.69,SSE,159,6.0,7.0,42,0.00,,CLR,0.00,VWS V14.01,2013-03-17 01:53:00,
2013-03-16 20:54:00,76.1,51.4,29.69,ESE,114,3.0,6.0,42,0.00,,CLR,0.00,VWS V14.01,2013-03-17 01:54:00,
2013-03-16 20:55:00,76.2,51.5,29.69,ESE,109,8.0,8.0,42,0.00,,CLR,0.00,VWS V14.01,2013-03-17 01:55:00,
2013-03-16 20:58:00,76.0,51.3,29.69,SSE,149,5.0,8.0,42,0.00,,CLR,0.00,VWS V14.01,2013-03-17 01:58:00,
2013-03-16 20:59:00,76.0,51.3,29.69,SE,131,7.0,9.0,42,0.00,,CLR,0.00,VWS V14.01,2013-03-17 01:59:00,
2013-03-16 21:00:00,76.0,51.3,29.69,SSE,162,7.0,9.0,42,0.00,,CLR,0.00,VWS V14.01,2013-03-17 02:00:00,
2013-03-16 21:04:00,75.9,51.2,29.69,SE,139,5.0,6.0,42,0.00,,CLR,0.00,VWS V14.01,2013-03-17 02:04:00,
2013-03-16 21:05:00,75.8,51.1,29.69,SE,138,4.0,6.0,42,0.00,,CLR,0.00,VWS V14.01,2013-03-17 02:05:00,
2013-03-16 21:09:00,75.7,51.0,29.69,ENE,71,7.0,7.0,42,0.00,,CLR,0.00,VWS V14.01,2013-03-17 02:09:00,
2013-03-16 21:10:00,75.7,51.0,29.69,SE,131,6.0,7.0,42,0.00,,CLR,0.00,VWS V14.01,2013-03-17 02:10:00,
2013-03-16 21:14:00,75.6,50.9,29.70,SSE,153,5.0,6.0,42,0.00,,CLR,0.00,VWS V14.01,2013-03-17 02:14:00,
2013-03-16 21:15:00,75.6,51.5,29.70,SE,132,3.0,3.0,43,0.00,,CLR,0.00,VWS V14.01,2013-03-17 02:15:00,
2013-03-16 21:19:00,75.3,51.3,29.69,SE,137,4.0,6.0,43,0.00,,CLR,0.00,VWS V14.01,2013-03-17 02:19:00,
2013-03-16 21:20:00,75.3,51.3,29.69,SSE,153,10.0,10.0,43,0.00,,CLR,0.00,VWS V14.01,2013-03-17 02:20:00,
2013-03-16 21:24:00,75.1,51.1,29.69,SE,131,4.0,5.0,43,0.00,,CLR,0.00,VWS V14.01,2013-03-17 02:24:00,
2013-03-16 21:25:00,75.1,51.1,29.70,SSE,154,5.0,6.0,43,0.00,,CLR,0.00,VWS V14.01,2013-03-17 02:25:00,
2013-03-16 21:26:00,75.1,51.1,29.70,SE,143,8.0,14.0,43,0.00,,CLR,0.00,VWS V14.01,2013-03-17 02:26:00,
2013-03-16 21:29:00,75.1,51.1,29.70,SSE,163,6.0,7.0,43,0.00,,CLR,0.00,VWS V14.01,2013-03-17 02:29:00,
2013-03-16 21:30:00,75.1,51.1,29.70,ESE,113,8.0,8.0,43,0.00,,CLR,0.00,VWS V14.01,2013-03-17 02:30:00,
2013-03-16 21:31:00,75.1,51.1,29.69,SE,136,5.0,10.0,43,0.00,,CLR,0.00,VWS V14.01,2013-03-17 02:31:00,
2013-03-16 21:34:00,75.1,50.5,29.69,ESE,114,6.0,10.0,42,0.00,,CLR,0.00,VWS V14.01,2013-03-17 02:34:00,
2013-03-16 21:35:00,75.1,50.5,29.69,SE,132,8.0,9.0,42,0.00,,CLR,0.00,VWS V14.01,2013-03-17 02:35:00,
2013-03-16 21:36:00,75.1,50.5,29.70,SE,132,5.0,7.0,42,0.00,,CLR,0.00,VWS V14.01,2013-03-17 02:36:00,
2013-03-16 21:39:00,75.0,50.4,29.70,ESE,115,14.0,14.0,42,0.00,,CLR,0.00,VWS V14.01,2013-03-17 02:39:00,
2013-03-16 21:40:00,75.1,50.5,29.70,ESE,114,8.0,12.0,42,0.00,,CLR,0.00,VWS V14.01,2013-03-17 02:40:00,
2013-03-16 21:42:00,75.1,50.5,29.70,SE,136,4.0,9.0,42,0.00,,CLR,0.00,VWS V14.01,2013-03-17 02:42:00,
2013-03-16 21:44:00,74.9,50.3,29.70,SSE,151,6.0,6.0,42,0.00,,CLR,0.00,VWS V14.01,2013-03-17 02:44:00,
2013-03-16 21:45:00,74.9,50.3,29.70,SE,130,5.0,7.0,42,0.00,,CLR,0.00,VWS V14.01,2013-03-17 02:45:00,
2013-03-16 21:47:00,74.9,50.3,29.70,SE,128,8.0,10.0,42,0.00,,CLR,0.00,VWS V14.01,2013-03-17 02:47:00,
2013-03-16 21:49:00,74.9,50.3,29.70,SE,127,4.0,5.0,42,0.00,,CLR,0.00,VWS V14.01,2013-03-17 02:49:00,
2013-03-16 21:50:00,74.9,50.3,29.70,SE,134,4.0,7.0,42,0.00,,CLR,0.00,VWS V14.01,2013-03-17 02:50:00,
2013-03-16 21:51:00,74.8,50.2,29.70,SSW,197,5.0,9.0,42,0.00,,CLR,0.00,VWS V14.01,2013-03-17 02:51:00,
2013-03-16 21:54:00,74.8,50.2,29.70,SE,139,8.0,9.0,42,0.00,,CLR,0.00,VWS V14.01,2013-03-17 02:54:00,
2013-03-16 21:55:00,74.8,50.2,29.70,SE,131,6.0,11.0,42,0.00,,CLR,0.00,VWS V14.01,2013-03-17 02:55:00,
2013-03-16 21:57:00,74.8,50.2,29.70,ESE,120,6.0,6.0,42,0.00,,CLR,0.00,VWS V14.01,2013-03-17 02:57:00,
2013-03-16 21:59:00,74.7,50.1,29.70,SSE,164,6.0,7.0,42,0.00,,CLR,0.00,VWS V14.01,2013-03-17 02:59:00,
2013-03-16 22:00:00,74.7,50.1,29.70,SSW,196,5.0,6.0,42,0.00,,CLR,0.00,VWS V14.01,2013-03-17 03:00:00,
2013-03-16 22:01:00,74.7,50.1,29.70,SE,138,5.0,5.0,42,0.00,,CLR,0.00,VWS V14.01,2013-03-17 03:01:00,
2013-03-16 22:02:00,74.6,50.0,29.70,South,173,6.0,8.0,42,0.00,,CLR,0.00,VWS V14.01,2013-03-17 03:02:00,
2013-03-16 22:04:00,74.5,49.9,29.70,SE,143,7.0,10.0,42,0.00,,CLR,0.00,VWS V14.01,2013-03-17 03:04:00,
2013-03-16 22:05:00,74.6,50.0,29.70,SSE,152,10.0,10.0,42,0.00,,CLR,0.00,VWS V14.01,2013-03-17 03:05:00,
2013-03-16 22:06:00,74.5,49.9,29.70,SE,140,7.0,7.0,42,0.00,,CLR,0.00,VWS V14.01,2013-03-17 03:06:00,
2013-03-16 22:07:00,74.5,49.9,29.70,ESE,119,6.0,9.0,42,0.00,,CLR,0.00,VWS V14.01,2013-03-17 03:07:00,
2013-03-16 22:09:00,74.5,49.9,29.70,SE,135,10.0,12.0,42,0.00,,CLR,0.00,VWS V14.01,2013-03-17 03:09:00,
2013-03-16 22:11:00,74.4,49.8,29.70,SE,135,6.0,7.0,42,0.00,,CLR,0.00,VWS V14.01,2013-03-17 03:11:00,
2013-03-16 22:12:00,74.4,49.8,29.70,ESE,115,6.0,6.0,42,0.00,,CLR,0.00,VWS V14.01,2013-03-17 03:12:00,
2013-03-16 22:15:00,74.3,49.8,29.70,SE,135,3.0,4.0,42,0.00,,CLR,0.00,VWS V14.01,2013-03-17 03:15:00,
2013-03-16 22:16:00,74.3,49.8,29.71,ESE,121,6.0,8.0,42,0.00,,CLR,0.00,VWS V14.01,2013-03-17 03:16:00,
2013-03-16 22:17:00,74.2,49.7,29.71,SSE,165,7.0,11.0,42,0.00,,CLR,0.00,VWS V14.01,2013-03-17 03:17:00,
2013-03-16 22:20:00,74.2,49.7,29.71,SE,141,5.0,7.0,42,0.00,,CLR,0.00,VWS V14.01,2013-03-17 03:20:00,
2013-03-16 22:21:00,74.2,49.7,29.71,ESE,113,4.0,4.0,42,0.00,,CLR,0.00,VWS V14.01,2013-03-17 03:21:00,
2013-03-16 22:22:00,74.2,49.7,29.71,SE,128,4.0,4.0,42,0.00,,CLR,0.00,VWS V14.01,2013-03-17 03:22:00,
2013-03-16 22:25:00,74.0,49.5,29.71,ESE,110,5.0,6.0,42,0.00,,CLR,0.00,VWS V14.01,2013-03-17 03:25:00,
2013-03-16 22:27:00,74.0,49.5,29.71,ESE,121,9.0,11.0,42,0.00,,CLR,0.00,VWS V14.01,2013-03-17 03:27:00,
2013-03-16 22:28:00,74.0,49.5,29.71,ESE,111,7.0,8.0,42,0.00,,CLR,0.00,VWS V14.01,2013-03-17 03:28:00,
2013-03-16 22:30:00,74.0,50.1,29.71,SE,131,5.0,8.0,43,0.00,,CLR,0.00,VWS V14.01,2013-03-17 03:30:00,
2013-03-16 22:32:00,73.9,50.0,29.71,ESE,104,7.0,7.0,43,0.00,,CLR,0.00,VWS V14.01,2013-03-17 03:32:00,
2013-03-16 22:33:00,73.9,50.0,29.71,SE,127,5.0,7.0,43,0.00,,CLR,0.00,VWS V14.01,2013-03-17 03:33:00,
2013-03-16 22:35:00,73.8,49.9,29.71,SSE,149,6.0,10.0,43,0.00,,CLR,0.00,VWS V14.01,2013-03-17 03:35:00,
2013-03-16 22:37:00,73.8,49.9,29.71,SSE,158,7.0,9.0,43,0.00,,CLR,0.00,VWS V14.01,2013-03-17 03:37:00,
2013-03-16 22:38:00,73.7,49.8,29.71,SE,141,11.0,11.0,43,0.00,,CLR,0.00,VWS V14.01,2013-03-17 03:38:00,
2013-03-16 22:40:00,73.7,49.8,29.71,SE,124,5.0,8.0,43,0.00,,CLR,0.00,VWS V14.01,2013-03-17 03:40:00,
2013-03-16 22:42:00,73.7,50.5,29.71,SE,124,6.0,6.0,44,0.00,,CLR,0.00,VWS V14.01,2013-03-17 03:42:00,
2013-03-16 22:43:00,73.7,50.5,29.71,SE,143,6.0,10.0,44,0.00,,CLR,0.00,VWS V14.01,2013-03-17 03:43:00,
2013-03-16 22:45:00,73.6,50.4,29.71,SE,143,6.0,7.0,44,0.00,,CLR,0.00,VWS V14.01,2013-03-17 03:45:00,
2013-03-16 22:47:00,73.5,50.3,29.71,SE,124,6.0,7.0,44,0.00,,CLR,0.00,VWS V14.01,2013-03-17 03:47:00,
2013-03-16 22:48:00,73.4,50.2,29.71,SE,137,6.0,11.0,44,0.00,,CLR,0.00,VWS V14.01,2013-03-17 03:48:00,
2013-03-16 22:50:00,73.3,50.1,29.71,SE,141,6.0,11.0,44,0.00,,CLR,0.00,VWS V14.01,2013-03-17 03:50:00,
2013-03-16 22:52:00,73.3,50.7,29.71,SE,128,5.0,9.0,45,0.00,,CLR,0.00,VWS V14.01,2013-03-17 03:52:00,
2013-03-16 22:53:00,73.2,50.6,29.71,SSE,147,2.0,5.0,45,0.00,,CLR,0.00,VWS V14.01,2013-03-17 03:53:00,
2013-03-16 22:55:00,73.1,50.5,29.72,SE,134,7.0,11.0,45,0.00,,CLR,0.00,VWS V14.01,2013-03-17 03:55:00,
2013-03-16 22:57:00,73.0,51.0,29.72,ESE,121,6.0,9.0,46,0.00,,CLR,0.00,VWS V14.01,2013-03-17 03:57:00,
2013-03-16 22:58:00,72.9,50.9,29.72,SE,137,8.0,9.0,46,0.00,,CLR,0.00,VWS V14.01,2013-03-17 03:58:00,
2013-03-16 23:00:00,72.9,50.9,29.71,SE,129,7.0,10.0,46,0.00,,CLR,0.00,VWS V14.01,2013-03-17 04:00:00,
2013-03-16 23:05:00,72.7,51.3,29.72,SSE,152,10.0,12.0,47,0.00,,CLR,0.00,VWS V14.01,2013-03-17 04:05:00,
2013-03-16 23:10:00,72.6,51.8,29.72,SE,129,10.0,10.0,48,0.00,,CLR,0.00,VWS V14.01,2013-03-17 04:10:00,
2013-03-16 23:15:00,72.5,52.3,29.72,SE,136,3.0,7.0,49,0.00,,CLR,0.00,VWS V14.01,2013-03-17 04:15:00,
2013-03-16 23:20:00,72.3,52.6,29.72,SSE,158,5.0,9.0,50,0.00,,CLR,0.00,VWS V14.01,2013-03-17 04:20:00,
2013-03-16 23:25:00,72.1,52.5,29.72,SE,136,7.0,10.0,50,0.00,,CLR,0.00,VWS V14.01,2013-03-17 04:25:00,
2013-03-16 23:30:00,72.0,52.9,29.72,ESE,110,8.0,12.0,51,0.00,,CLR,0.00,VWS V14.01,2013-03-17 04:30:00,
2013-03-16 23:31:00,72.0,52.9,29.73,SSE,155,6.0,8.0,51,0.00,,CLR,0.00,VWS V14.01,2013-03-17 04:31:00,
2013-03-16 23:35:00,71.8,53.2,29.72,ESE,110,8.0,8.0,52,0.00,,CLR,0.00,VWS V14.01,2013-03-17 04:35:00,
2013-03-16 23:36:00,71.8,53.2,29.72,SE,129,7.0,8.0,52,0.00,,CLR,0.00,VWS V14.01,2013-03-17 04:36:00,
2013-03-16 23:41:00,71.6,53.6,29.72,ESE,120,9.0,9.0,53,0.00,,CLR,0.00,VWS V14.01,2013-03-17 04:41:00,
2013-03-16 23:46:00,71.4,53.9,29.73,SE,136,10.0,11.0,54,0.00,,CLR,0.00,VWS V14.01,2013-03-17 04:46:00,
2013-03-16 23:47:00,71.4,53.9,29.72,ESE,108,7.0,9.0,54,0.00,,CLR,0.00,VWS V14.01,2013-03-17 04:47:00,
2013-03-16 23:52:00,71.2,54.2,29.73,SE,126,9.0,9.0,55,0.00,,CLR,0.00,VWS V14.01,2013-03-17 04:52:00,
2013-03-16 23:57:00,71.1,54.6,29.73,SSE,167,8.0,10.0,56,0.00,,CLR,0.00,VWS V14.01,2013-03-17 04:57:00,